<?xml version="1.0" encoding="UTF-8" standalone="no" ?>
<gpx xmlns="http://www.topografix.com/GPX/1/1" xmlns:xsi="http://www.w3.org/2001/XMLSchema-instance" xsi:schemaLocation="http://www.topografix.com/GPX/1/1 http://www.topografix.com/GPX/1/1/gpx.xsd" version="1.1" creator="VisuGPX - https://www.visugpx.com">
  <metadata>
    <name>R 079 Le Canal</name>
  </metadata>
  <trk>
    <name><![CDATA[R 79_Circuit le Canal]]></name>
    <trkseg>
      <trkpt lat="46.54231" lon="-1.77467">
        <ele>3</ele>
        <time>2014-01-29T13:37:59Z</time>
      </trkpt>
      <trkpt lat="46.54228" lon="-1.77467">
        <ele>3</ele>
        <time>2014-01-29T13:38:02Z</time>
      </trkpt>
      <trkpt lat="46.54217" lon="-1.77477">
        <ele>3</ele>
        <time>2014-01-29T13:38:15Z</time>
      </trkpt>
      <trkpt lat="46.54207" lon="-1.77488">
        <ele>3</ele>
        <time>2014-01-29T13:38:26Z</time>
      </trkpt>
      <trkpt lat="46.54193" lon="-1.77504">
        <ele>3</ele>
        <time>2014-01-29T13:38:41Z</time>
      </trkpt>
      <trkpt lat="46.54189" lon="-1.77509">
        <ele>3</ele>
        <time>2014-01-29T13:38:46Z</time>
      </trkpt>
      <trkpt lat="46.54187" lon="-1.7751">
        <ele>3</ele>
        <time>2014-01-29T13:38:48Z</time>
      </trkpt>
      <trkpt lat="46.54184" lon="-1.77513">
        <ele>3</ele>
        <time>2014-01-29T13:38:51Z</time>
      </trkpt>
      <trkpt lat="46.54184" lon="-1.77514">
        <ele>3</ele>
        <time>2014-01-29T13:38:52Z</time>
      </trkpt>
      <trkpt lat="46.54183" lon="-1.77514">
        <ele>3</ele>
        <time>2014-01-29T13:38:53Z</time>
      </trkpt>
      <trkpt lat="46.54183" lon="-1.77515">
        <ele>3</ele>
        <time>2014-01-29T13:38:54Z</time>
      </trkpt>
      <trkpt lat="46.54181" lon="-1.77517">
        <ele>3</ele>
        <time>2014-01-29T13:38:56Z</time>
      </trkpt>
      <trkpt lat="46.5418" lon="-1.77517">
        <ele>3</ele>
        <time>2014-01-29T13:38:57Z</time>
      </trkpt>
      <trkpt lat="46.54179" lon="-1.77518">
        <ele>3</ele>
        <time>2014-01-29T13:38:58Z</time>
      </trkpt>
      <trkpt lat="46.54178" lon="-1.77519">
        <ele>3</ele>
        <time>2014-01-29T13:38:59Z</time>
      </trkpt>
      <trkpt lat="46.54177" lon="-1.7752">
        <ele>3</ele>
        <time>2014-01-29T13:39:00Z</time>
      </trkpt>
      <trkpt lat="46.54176" lon="-1.77521">
        <ele>3</ele>
        <time>2014-01-29T13:39:01Z</time>
      </trkpt>
      <trkpt lat="46.54175" lon="-1.77522">
        <ele>3</ele>
        <time>2014-01-29T13:39:02Z</time>
      </trkpt>
      <trkpt lat="46.54174" lon="-1.77523">
        <ele>3</ele>
        <time>2014-01-29T13:39:03Z</time>
      </trkpt>
      <trkpt lat="46.54173" lon="-1.77524">
        <ele>3</ele>
        <time>2014-01-29T13:39:04Z</time>
      </trkpt>
      <trkpt lat="46.54173" lon="-1.77526">
        <ele>3</ele>
        <time>2014-01-29T13:39:05Z</time>
      </trkpt>
      <trkpt lat="46.54171" lon="-1.77527">
        <ele>3</ele>
        <time>2014-01-29T13:39:07Z</time>
      </trkpt>
      <trkpt lat="46.54169" lon="-1.77529">
        <ele>3</ele>
        <time>2014-01-29T13:39:09Z</time>
      </trkpt>
      <trkpt lat="46.54167" lon="-1.7753">
        <ele>3</ele>
        <time>2014-01-29T13:39:11Z</time>
      </trkpt>
      <trkpt lat="46.54165" lon="-1.77532">
        <ele>4</ele>
        <time>2014-01-29T13:39:13Z</time>
      </trkpt>
      <trkpt lat="46.54163" lon="-1.77533">
        <ele>4</ele>
        <time>2014-01-29T13:39:15Z</time>
      </trkpt>
      <trkpt lat="46.54161" lon="-1.77535">
        <ele>4</ele>
        <time>2014-01-29T13:39:17Z</time>
      </trkpt>
      <trkpt lat="46.5416" lon="-1.77536">
        <ele>4</ele>
        <time>2014-01-29T13:39:19Z</time>
      </trkpt>
      <trkpt lat="46.54158" lon="-1.77536">
        <ele>4</ele>
        <time>2014-01-29T13:39:21Z</time>
      </trkpt>
      <trkpt lat="46.54156" lon="-1.77537">
        <ele>4</ele>
        <time>2014-01-29T13:39:23Z</time>
      </trkpt>
      <trkpt lat="46.54154" lon="-1.77539">
        <ele>4</ele>
        <time>2014-01-29T13:39:25Z</time>
      </trkpt>
      <trkpt lat="46.54151" lon="-1.77542">
        <ele>4</ele>
        <time>2014-01-29T13:39:28Z</time>
      </trkpt>
      <trkpt lat="46.54149" lon="-1.77544">
        <ele>4</ele>
        <time>2014-01-29T13:39:31Z</time>
      </trkpt>
      <trkpt lat="46.54146" lon="-1.77546">
        <ele>4</ele>
        <time>2014-01-29T13:39:34Z</time>
      </trkpt>
      <trkpt lat="46.54143" lon="-1.77548">
        <ele>4</ele>
        <time>2014-01-29T13:39:37Z</time>
      </trkpt>
      <trkpt lat="46.54141" lon="-1.7755">
        <ele>4</ele>
        <time>2014-01-29T13:39:39Z</time>
      </trkpt>
      <trkpt lat="46.54138" lon="-1.77552">
        <ele>4</ele>
        <time>2014-01-29T13:39:42Z</time>
      </trkpt>
      <trkpt lat="46.54137" lon="-1.77553">
        <ele>4</ele>
        <time>2014-01-29T13:39:43Z</time>
      </trkpt>
      <trkpt lat="46.54134" lon="-1.77559">
        <ele>4</ele>
        <time>2014-01-29T13:39:47Z</time>
      </trkpt>
      <trkpt lat="46.54132" lon="-1.77564">
        <ele>4</ele>
        <time>2014-01-29T13:39:50Z</time>
      </trkpt>
      <trkpt lat="46.54134" lon="-1.77575">
        <ele>4</ele>
        <time>2014-01-29T13:39:57Z</time>
      </trkpt>
      <trkpt lat="46.54135" lon="-1.77583">
        <ele>4</ele>
        <time>2014-01-29T13:40:02Z</time>
      </trkpt>
      <trkpt lat="46.54139" lon="-1.77596">
        <ele>4</ele>
        <time>2014-01-29T13:40:11Z</time>
      </trkpt>
      <trkpt lat="46.54141" lon="-1.77603">
        <ele>4</ele>
        <time>2014-01-29T13:40:17Z</time>
      </trkpt>
      <trkpt lat="46.54142" lon="-1.77607">
        <ele>4</ele>
        <time>2014-01-29T13:40:19Z</time>
      </trkpt>
      <trkpt lat="46.54143" lon="-1.77613">
        <ele>4</ele>
        <time>2014-01-29T13:40:23Z</time>
      </trkpt>
      <trkpt lat="46.54148" lon="-1.77629">
        <ele>4</ele>
        <time>2014-01-29T13:40:33Z</time>
      </trkpt>
      <trkpt lat="46.54151" lon="-1.77644">
        <ele>3</ele>
        <time>2014-01-29T13:40:43Z</time>
      </trkpt>
      <trkpt lat="46.54152" lon="-1.7765">
        <ele>3</ele>
        <time>2014-01-29T13:40:47Z</time>
      </trkpt>
      <trkpt lat="46.54153" lon="-1.77661">
        <ele>3</ele>
        <time>2014-01-29T13:40:54Z</time>
      </trkpt>
      <trkpt lat="46.54159" lon="-1.77682">
        <ele>3</ele>
        <time>2014-01-29T13:41:08Z</time>
      </trkpt>
      <trkpt lat="46.54159" lon="-1.77686">
        <ele>3</ele>
        <time>2014-01-29T13:41:10Z</time>
      </trkpt>
      <trkpt lat="46.54164" lon="-1.77703">
        <ele>3</ele>
        <time>2014-01-29T13:41:21Z</time>
      </trkpt>
      <trkpt lat="46.54167" lon="-1.77728">
        <ele>2</ele>
        <time>2014-01-29T13:41:37Z</time>
      </trkpt>
      <trkpt lat="46.54171" lon="-1.77751">
        <ele>2</ele>
        <time>2014-01-29T13:41:51Z</time>
      </trkpt>
      <trkpt lat="46.54176" lon="-1.77773">
        <ele>2</ele>
        <time>2014-01-29T13:42:05Z</time>
      </trkpt>
      <trkpt lat="46.5418" lon="-1.77785">
        <ele>2</ele>
        <time>2014-01-29T13:42:13Z</time>
      </trkpt>
      <trkpt lat="46.54186" lon="-1.77811">
        <ele>2</ele>
        <time>2014-01-29T13:42:29Z</time>
      </trkpt>
      <trkpt lat="46.54193" lon="-1.77833">
        <ele>2</ele>
        <time>2014-01-29T13:42:44Z</time>
      </trkpt>
      <trkpt lat="46.54202" lon="-1.7785">
        <ele>2</ele>
        <time>2014-01-29T13:42:57Z</time>
      </trkpt>
      <trkpt lat="46.54211" lon="-1.77868">
        <ele>2</ele>
        <time>2014-01-29T13:43:10Z</time>
      </trkpt>
      <trkpt lat="46.54223" lon="-1.77884">
        <ele>2</ele>
        <time>2014-01-29T13:43:25Z</time>
      </trkpt>
      <trkpt lat="46.54237" lon="-1.77891">
        <ele>2</ele>
        <time>2014-01-29T13:43:37Z</time>
      </trkpt>
      <trkpt lat="46.54249" lon="-1.77901">
        <ele>2</ele>
        <time>2014-01-29T13:43:53Z</time>
      </trkpt>
      <trkpt lat="46.54261" lon="-1.77916">
        <ele>2</ele>
        <time>2014-01-29T13:44:06Z</time>
      </trkpt>
      <trkpt lat="46.54269" lon="-1.77936">
        <ele>2</ele>
        <time>2014-01-29T13:44:21Z</time>
      </trkpt>
      <trkpt lat="46.54273" lon="-1.77947">
        <ele>2</ele>
        <time>2014-01-29T13:44:28Z</time>
      </trkpt>
      <trkpt lat="46.5428" lon="-1.77969">
        <ele>1</ele>
        <time>2014-01-29T13:44:42Z</time>
      </trkpt>
      <trkpt lat="46.54286" lon="-1.77994">
        <ele>1</ele>
        <time>2014-01-29T13:44:57Z</time>
      </trkpt>
      <trkpt lat="46.54292" lon="-1.78016">
        <ele>2</ele>
        <time>2014-01-29T13:45:11Z</time>
      </trkpt>
      <trkpt lat="46.54297" lon="-1.78037">
        <ele>2</ele>
        <time>2014-01-29T13:45:24Z</time>
      </trkpt>
      <trkpt lat="46.54302" lon="-1.78058">
        <ele>3</ele>
        <time>2014-01-29T13:45:37Z</time>
      </trkpt>
      <trkpt lat="46.54308" lon="-1.78083">
        <ele>3</ele>
        <time>2014-01-29T13:45:53Z</time>
      </trkpt>
      <trkpt lat="46.54308" lon="-1.78086">
        <ele>4</ele>
        <time>2014-01-29T13:45:55Z</time>
      </trkpt>
      <trkpt lat="46.5431" lon="-1.78108">
        <ele>4</ele>
        <time>2014-01-29T13:46:09Z</time>
      </trkpt>
      <trkpt lat="46.54309" lon="-1.78123">
        <ele>4</ele>
        <time>2014-01-29T13:46:19Z</time>
      </trkpt>
      <trkpt lat="46.54305" lon="-1.78147">
        <ele>4</ele>
        <time>2014-01-29T13:46:34Z</time>
      </trkpt>
      <trkpt lat="46.54301" lon="-1.78165">
        <ele>4</ele>
        <time>2014-01-29T13:46:46Z</time>
      </trkpt>
      <trkpt lat="46.54297" lon="-1.78185">
        <ele>4</ele>
        <time>2014-01-29T13:46:59Z</time>
      </trkpt>
      <trkpt lat="46.54291" lon="-1.78205">
        <ele>4</ele>
        <time>2014-01-29T13:47:12Z</time>
      </trkpt>
      <trkpt lat="46.54287" lon="-1.78225">
        <ele>3</ele>
        <time>2014-01-29T13:47:25Z</time>
      </trkpt>
      <trkpt lat="46.54282" lon="-1.78248">
        <ele>3</ele>
        <time>2014-01-29T13:47:39Z</time>
      </trkpt>
      <trkpt lat="46.54278" lon="-1.78267">
        <ele>3</ele>
        <time>2014-01-29T13:47:51Z</time>
      </trkpt>
      <trkpt lat="46.54275" lon="-1.78281">
        <ele>3</ele>
        <time>2014-01-29T13:48:00Z</time>
      </trkpt>
      <trkpt lat="46.54269" lon="-1.78305">
        <ele>3</ele>
        <time>2014-01-29T13:48:15Z</time>
      </trkpt>
      <trkpt lat="46.54266" lon="-1.78328">
        <ele>3</ele>
        <time>2014-01-29T13:48:29Z</time>
      </trkpt>
      <trkpt lat="46.54266" lon="-1.7833">
        <ele>3</ele>
        <time>2014-01-29T13:48:30Z</time>
      </trkpt>
      <trkpt lat="46.54265" lon="-1.78355">
        <ele>2</ele>
        <time>2014-01-29T13:48:45Z</time>
      </trkpt>
      <trkpt lat="46.54264" lon="-1.78377">
        <ele>2</ele>
        <time>2014-01-29T13:48:59Z</time>
      </trkpt>
      <trkpt lat="46.5426" lon="-1.78401">
        <ele>1</ele>
        <time>2014-01-29T13:49:14Z</time>
      </trkpt>
      <trkpt lat="46.54254" lon="-1.78422">
        <ele>1</ele>
        <time>2014-01-29T13:49:28Z</time>
      </trkpt>
      <trkpt lat="46.54248" lon="-1.78445">
        <ele>2</ele>
        <time>2014-01-29T13:49:43Z</time>
      </trkpt>
      <trkpt lat="46.54244" lon="-1.78465">
        <ele>2</ele>
        <time>2014-01-29T13:49:56Z</time>
      </trkpt>
      <trkpt lat="46.54239" lon="-1.78486">
        <ele>2</ele>
        <time>2014-01-29T13:50:10Z</time>
      </trkpt>
      <trkpt lat="46.54236" lon="-1.7851">
        <ele>2</ele>
        <time>2014-01-29T13:50:25Z</time>
      </trkpt>
      <trkpt lat="46.54233" lon="-1.78535">
        <ele>2</ele>
        <time>2014-01-29T13:50:40Z</time>
      </trkpt>
      <trkpt lat="46.54231" lon="-1.78558">
        <ele>1</ele>
        <time>2014-01-29T13:50:54Z</time>
      </trkpt>
      <trkpt lat="46.5423" lon="-1.78559">
        <ele>1</ele>
        <time>2014-01-29T13:50:55Z</time>
      </trkpt>
      <trkpt lat="46.54229" lon="-1.78585">
        <ele>2</ele>
        <time>2014-01-29T13:51:11Z</time>
      </trkpt>
      <trkpt lat="46.54228" lon="-1.7859">
        <ele>2</ele>
        <time>2014-01-29T13:51:14Z</time>
      </trkpt>
      <trkpt lat="46.54227" lon="-1.78597">
        <ele>2</ele>
        <time>2014-01-29T13:51:19Z</time>
      </trkpt>
      <trkpt lat="46.54225" lon="-1.78606">
        <ele>2</ele>
        <time>2014-01-29T13:51:24Z</time>
      </trkpt>
      <trkpt lat="46.54223" lon="-1.78633">
        <ele>2</ele>
        <time>2014-01-29T13:51:40Z</time>
      </trkpt>
      <trkpt lat="46.54221" lon="-1.78653">
        <ele>2</ele>
        <time>2014-01-29T13:51:53Z</time>
      </trkpt>
      <trkpt lat="46.54219" lon="-1.78673">
        <ele>3</ele>
        <time>2014-01-29T13:52:06Z</time>
      </trkpt>
      <trkpt lat="46.54218" lon="-1.78679">
        <ele>3</ele>
        <time>2014-01-29T13:52:10Z</time>
      </trkpt>
      <trkpt lat="46.54217" lon="-1.78703">
        <ele>3</ele>
        <time>2014-01-29T13:52:25Z</time>
      </trkpt>
      <trkpt lat="46.54217" lon="-1.78706">
        <ele>3</ele>
        <time>2014-01-29T13:52:27Z</time>
      </trkpt>
      <trkpt lat="46.54215" lon="-1.78729">
        <ele>2</ele>
        <time>2014-01-29T13:52:41Z</time>
      </trkpt>
      <trkpt lat="46.54212" lon="-1.78754">
        <ele>2</ele>
        <time>2014-01-29T13:52:57Z</time>
      </trkpt>
      <trkpt lat="46.54211" lon="-1.78762">
        <ele>2</ele>
        <time>2014-01-29T13:53:02Z</time>
      </trkpt>
      <trkpt lat="46.54208" lon="-1.78788">
        <ele>2</ele>
        <time>2014-01-29T13:53:18Z</time>
      </trkpt>
      <trkpt lat="46.54208" lon="-1.78808">
        <ele>3</ele>
        <time>2014-01-29T13:53:31Z</time>
      </trkpt>
      <trkpt lat="46.5421" lon="-1.78833">
        <ele>3</ele>
        <time>2014-01-29T13:53:46Z</time>
      </trkpt>
      <trkpt lat="46.54209" lon="-1.78858">
        <ele>3</ele>
        <time>2014-01-29T13:54:01Z</time>
      </trkpt>
      <trkpt lat="46.54209" lon="-1.78881">
        <ele>4</ele>
        <time>2014-01-29T13:54:16Z</time>
      </trkpt>
      <trkpt lat="46.54212" lon="-1.78909">
        <ele>4</ele>
        <time>2014-01-29T13:54:32Z</time>
      </trkpt>
      <trkpt lat="46.54212" lon="-1.78932">
        <ele>4</ele>
        <time>2014-01-29T13:54:46Z</time>
      </trkpt>
      <trkpt lat="46.54213" lon="-1.78951">
        <ele>4</ele>
        <time>2014-01-29T13:54:58Z</time>
      </trkpt>
      <trkpt lat="46.54215" lon="-1.78973">
        <ele>3</ele>
        <time>2014-01-29T13:55:12Z</time>
      </trkpt>
      <trkpt lat="46.54217" lon="-1.78997">
        <ele>3</ele>
        <time>2014-01-29T13:55:26Z</time>
      </trkpt>
      <trkpt lat="46.54221" lon="-1.79019">
        <ele>2</ele>
        <time>2014-01-29T13:55:40Z</time>
      </trkpt>
      <trkpt lat="46.54224" lon="-1.79046">
        <ele>2</ele>
        <time>2014-01-29T13:55:55Z</time>
      </trkpt>
      <trkpt lat="46.54223" lon="-1.79049">
        <ele>2</ele>
        <time>2014-01-29T13:55:57Z</time>
      </trkpt>
      <trkpt lat="46.54226" lon="-1.7907">
        <ele>2</ele>
        <time>2014-01-29T13:56:11Z</time>
      </trkpt>
      <trkpt lat="46.5423" lon="-1.79096">
        <ele>2</ele>
        <time>2014-01-29T13:56:26Z</time>
      </trkpt>
      <trkpt lat="46.54233" lon="-1.79117">
        <ele>2</ele>
        <time>2014-01-29T13:56:39Z</time>
      </trkpt>
      <trkpt lat="46.54234" lon="-1.79123">
        <ele>2</ele>
        <time>2014-01-29T13:56:43Z</time>
      </trkpt>
      <trkpt lat="46.54239" lon="-1.79146">
        <ele>2</ele>
        <time>2014-01-29T13:56:58Z</time>
      </trkpt>
      <trkpt lat="46.54245" lon="-1.79168">
        <ele>1</ele>
        <time>2014-01-29T13:57:12Z</time>
      </trkpt>
      <trkpt lat="46.54249" lon="-1.79189">
        <ele>2</ele>
        <time>2014-01-29T13:57:25Z</time>
      </trkpt>
      <trkpt lat="46.54256" lon="-1.79212">
        <ele>2</ele>
        <time>2014-01-29T13:57:40Z</time>
      </trkpt>
      <trkpt lat="46.5426" lon="-1.7923">
        <ele>2</ele>
        <time>2014-01-29T13:57:51Z</time>
      </trkpt>
      <trkpt lat="46.5427" lon="-1.7925">
        <ele>2</ele>
        <time>2014-01-29T13:58:06Z</time>
      </trkpt>
      <trkpt lat="46.54274" lon="-1.79255">
        <ele>2</ele>
        <time>2014-01-29T13:58:11Z</time>
      </trkpt>
      <trkpt lat="46.54286" lon="-1.79272">
        <ele>2</ele>
        <time>2014-01-29T13:58:26Z</time>
      </trkpt>
      <trkpt lat="46.54297" lon="-1.79288">
        <ele>2</ele>
        <time>2014-01-29T13:58:39Z</time>
      </trkpt>
      <trkpt lat="46.5431" lon="-1.79299">
        <ele>2</ele>
        <time>2014-01-29T13:58:53Z</time>
      </trkpt>
      <trkpt lat="46.54321" lon="-1.79314">
        <ele>2</ele>
        <time>2014-01-29T13:59:06Z</time>
      </trkpt>
      <trkpt lat="46.54332" lon="-1.79327">
        <ele>2</ele>
        <time>2014-01-29T13:59:18Z</time>
      </trkpt>
      <trkpt lat="46.54342" lon="-1.7934">
        <ele>2</ele>
        <time>2014-01-29T13:59:31Z</time>
      </trkpt>
      <trkpt lat="46.54352" lon="-1.79352">
        <ele>2</ele>
        <time>2014-01-29T13:59:43Z</time>
      </trkpt>
      <trkpt lat="46.54363" lon="-1.79365">
        <ele>2</ele>
        <time>2014-01-29T13:59:56Z</time>
      </trkpt>
      <trkpt lat="46.54368" lon="-1.79379">
        <ele>2</ele>
        <time>2014-01-29T14:00:06Z</time>
      </trkpt>
      <trkpt lat="46.54369" lon="-1.794">
        <ele>2</ele>
        <time>2014-01-29T14:00:20Z</time>
      </trkpt>
      <trkpt lat="46.54368" lon="-1.79404">
        <ele>2</ele>
        <time>2014-01-29T14:00:23Z</time>
      </trkpt>
      <trkpt lat="46.54359" lon="-1.79424">
        <ele>1</ele>
        <time>2014-01-29T14:00:37Z</time>
      </trkpt>
      <trkpt lat="46.54357" lon="-1.79428">
        <ele>1</ele>
        <time>2014-01-29T14:00:41Z</time>
      </trkpt>
      <trkpt lat="46.54349" lon="-1.79446">
        <ele>1</ele>
        <time>2014-01-29T14:00:54Z</time>
      </trkpt>
      <trkpt lat="46.5434" lon="-1.79463">
        <ele>1</ele>
        <time>2014-01-29T14:01:07Z</time>
      </trkpt>
      <trkpt lat="46.54331" lon="-1.79482">
        <ele>2</ele>
        <time>2014-01-29T14:01:21Z</time>
      </trkpt>
      <trkpt lat="46.54321" lon="-1.79501">
        <ele>2</ele>
        <time>2014-01-29T14:01:35Z</time>
      </trkpt>
      <trkpt lat="46.54312" lon="-1.79519">
        <ele>2</ele>
        <time>2014-01-29T14:01:48Z</time>
      </trkpt>
      <trkpt lat="46.54305" lon="-1.79533">
        <ele>2</ele>
        <time>2014-01-29T14:01:59Z</time>
      </trkpt>
      <trkpt lat="46.54296" lon="-1.7955">
        <ele>2</ele>
        <time>2014-01-29T14:02:12Z</time>
      </trkpt>
      <trkpt lat="46.54294" lon="-1.79569">
        <ele>3</ele>
        <time>2014-01-29T14:02:24Z</time>
      </trkpt>
      <trkpt lat="46.54294" lon="-1.7957">
        <ele>3</ele>
        <time>2014-01-29T14:02:25Z</time>
      </trkpt>
      <trkpt lat="46.54287" lon="-1.79591">
        <ele>3</ele>
        <time>2014-01-29T14:02:39Z</time>
      </trkpt>
      <trkpt lat="46.54279" lon="-1.79607">
        <ele>4</ele>
        <time>2014-01-29T14:02:52Z</time>
      </trkpt>
      <trkpt lat="46.54271" lon="-1.79625">
        <ele>4</ele>
        <time>2014-01-29T14:03:05Z</time>
      </trkpt>
      <trkpt lat="46.54265" lon="-1.79636">
        <ele>4</ele>
        <time>2014-01-29T14:03:14Z</time>
      </trkpt>
      <trkpt lat="46.54259" lon="-1.79647">
        <ele>4</ele>
        <time>2014-01-29T14:03:23Z</time>
      </trkpt>
      <trkpt lat="46.54251" lon="-1.79663">
        <ele>5</ele>
        <time>2014-01-29T14:03:36Z</time>
      </trkpt>
      <trkpt lat="46.54242" lon="-1.79677">
        <ele>5</ele>
        <time>2014-01-29T14:03:48Z</time>
      </trkpt>
      <trkpt lat="46.54237" lon="-1.79687">
        <ele>5</ele>
        <time>2014-01-29T14:03:56Z</time>
      </trkpt>
      <trkpt lat="46.54231" lon="-1.79694">
        <ele>5</ele>
        <time>2014-01-29T14:04:03Z</time>
      </trkpt>
      <trkpt lat="46.54221" lon="-1.79712">
        <ele>5</ele>
        <time>2014-01-29T14:04:17Z</time>
      </trkpt>
      <trkpt lat="46.54208" lon="-1.79726">
        <ele>5</ele>
        <time>2014-01-29T14:04:31Z</time>
      </trkpt>
      <trkpt lat="46.54206" lon="-1.79732">
        <ele>5</ele>
        <time>2014-01-29T14:04:36Z</time>
      </trkpt>
      <trkpt lat="46.54207" lon="-1.79737">
        <ele>5</ele>
        <time>2014-01-29T14:04:39Z</time>
      </trkpt>
      <trkpt lat="46.54203" lon="-1.79749">
        <ele>5</ele>
        <time>2014-01-29T14:04:48Z</time>
      </trkpt>
      <trkpt lat="46.54199" lon="-1.79755">
        <ele>5</ele>
        <time>2014-01-29T14:05:00Z</time>
      </trkpt>
      <trkpt lat="46.54196" lon="-1.79761">
        <ele>5</ele>
        <time>2014-01-29T14:05:11Z</time>
      </trkpt>
      <trkpt lat="46.54196" lon="-1.79761">
        <ele>5</ele>
        <time>2014-01-29T14:05:12Z</time>
      </trkpt>
      <trkpt lat="46.54194" lon="-1.79767">
        <ele>5</ele>
        <time>2014-01-29T14:05:16Z</time>
      </trkpt>
      <trkpt lat="46.54187" lon="-1.79785">
        <ele>5</ele>
        <time>2014-01-29T14:05:28Z</time>
      </trkpt>
      <trkpt lat="46.54185" lon="-1.7979">
        <ele>5</ele>
        <time>2014-01-29T14:05:33Z</time>
      </trkpt>
      <trkpt lat="46.54184" lon="-1.79793">
        <ele>5</ele>
        <time>2014-01-29T14:05:35Z</time>
      </trkpt>
      <trkpt lat="46.54179" lon="-1.79803">
        <ele>5</ele>
        <time>2014-01-29T14:05:41Z</time>
      </trkpt>
      <trkpt lat="46.54169" lon="-1.79823">
        <ele>5</ele>
        <time>2014-01-29T14:05:55Z</time>
      </trkpt>
      <trkpt lat="46.5416" lon="-1.79845">
        <ele>5</ele>
        <time>2014-01-29T14:06:09Z</time>
      </trkpt>
      <trkpt lat="46.54152" lon="-1.79863">
        <ele>4</ele>
        <time>2014-01-29T14:06:22Z</time>
      </trkpt>
      <trkpt lat="46.54151" lon="-1.79864">
        <ele>4</ele>
        <time>2014-01-29T14:06:23Z</time>
      </trkpt>
      <trkpt lat="46.54142" lon="-1.79884">
        <ele>4</ele>
        <time>2014-01-29T14:06:37Z</time>
      </trkpt>
      <trkpt lat="46.54137" lon="-1.79892">
        <ele>4</ele>
        <time>2014-01-29T14:06:43Z</time>
      </trkpt>
      <trkpt lat="46.54129" lon="-1.7991">
        <ele>4</ele>
        <time>2014-01-29T14:06:57Z</time>
      </trkpt>
      <trkpt lat="46.54119" lon="-1.79931">
        <ele>4</ele>
        <time>2014-01-29T14:07:12Z</time>
      </trkpt>
      <trkpt lat="46.54111" lon="-1.79947">
        <ele>4</ele>
        <time>2014-01-29T14:07:25Z</time>
      </trkpt>
      <trkpt lat="46.54107" lon="-1.79957">
        <ele>4</ele>
        <time>2014-01-29T14:07:32Z</time>
      </trkpt>
      <trkpt lat="46.54099" lon="-1.79976">
        <ele>4</ele>
        <time>2014-01-29T14:07:47Z</time>
      </trkpt>
      <trkpt lat="46.54094" lon="-1.79988">
        <ele>4</ele>
        <time>2014-01-29T14:07:57Z</time>
      </trkpt>
      <trkpt lat="46.54085" lon="-1.80006">
        <ele>4</ele>
        <time>2014-01-29T14:08:10Z</time>
      </trkpt>
      <trkpt lat="46.54077" lon="-1.80023">
        <ele>3</ele>
        <time>2014-01-29T14:08:23Z</time>
      </trkpt>
      <trkpt lat="46.54069" lon="-1.80041">
        <ele>3</ele>
        <time>2014-01-29T14:08:36Z</time>
      </trkpt>
      <trkpt lat="46.54065" lon="-1.80046">
        <ele>3</ele>
        <time>2014-01-29T14:08:41Z</time>
      </trkpt>
      <trkpt lat="46.54056" lon="-1.80065">
        <ele>3</ele>
        <time>2014-01-29T14:08:55Z</time>
      </trkpt>
      <trkpt lat="46.54047" lon="-1.80084">
        <ele>2</ele>
        <time>2014-01-29T14:09:08Z</time>
      </trkpt>
      <trkpt lat="46.54038" lon="-1.80102">
        <ele>2</ele>
        <time>2014-01-29T14:09:23Z</time>
      </trkpt>
      <trkpt lat="46.54029" lon="-1.80119">
        <ele>2</ele>
        <time>2014-01-29T14:09:36Z</time>
      </trkpt>
      <trkpt lat="46.54021" lon="-1.80136">
        <ele>2</ele>
        <time>2014-01-29T14:09:49Z</time>
      </trkpt>
      <trkpt lat="46.54013" lon="-1.80151">
        <ele>2</ele>
        <time>2014-01-29T14:10:01Z</time>
      </trkpt>
      <trkpt lat="46.5401" lon="-1.80156">
        <ele>2</ele>
        <time>2014-01-29T14:10:05Z</time>
      </trkpt>
      <trkpt lat="46.54008" lon="-1.80163">
        <ele>2</ele>
        <time>2014-01-29T14:10:11Z</time>
      </trkpt>
      <trkpt lat="46.5401" lon="-1.80168">
        <ele>2</ele>
        <time>2014-01-29T14:10:16Z</time>
      </trkpt>
      <trkpt lat="46.54013" lon="-1.80171">
        <ele>2</ele>
        <time>2014-01-29T14:10:20Z</time>
      </trkpt>
      <trkpt lat="46.54018" lon="-1.80177">
        <ele>2</ele>
        <time>2014-01-29T14:10:32Z</time>
      </trkpt>
      <trkpt lat="46.54019" lon="-1.80177">
        <ele>2</ele>
        <time>2014-01-29T14:10:49Z</time>
      </trkpt>
      <trkpt lat="46.5402" lon="-1.80178">
        <ele>2</ele>
        <time>2014-01-29T14:11:04Z</time>
      </trkpt>
      <trkpt lat="46.54022" lon="-1.8018">
        <ele>2</ele>
        <time>2014-01-29T14:11:17Z</time>
      </trkpt>
      <trkpt lat="46.54023" lon="-1.80181">
        <ele>2</ele>
        <time>2014-01-29T14:11:32Z</time>
      </trkpt>
      <trkpt lat="46.54023" lon="-1.80182">
        <ele>2</ele>
        <time>2014-01-29T14:11:51Z</time>
      </trkpt>
      <trkpt lat="46.54024" lon="-1.80182">
        <ele>2</ele>
        <time>2014-01-29T14:12:14Z</time>
      </trkpt>
      <trkpt lat="46.54024" lon="-1.80183">
        <ele>2</ele>
        <time>2014-01-29T14:12:28Z</time>
      </trkpt>
      <trkpt lat="46.54024" lon="-1.80183">
        <ele>2</ele>
        <time>2014-01-29T14:12:52Z</time>
      </trkpt>
      <trkpt lat="46.54024" lon="-1.80182">
        <ele>2</ele>
        <time>2014-01-29T14:13:13Z</time>
      </trkpt>
      <trkpt lat="46.54024" lon="-1.80183">
        <ele>2</ele>
        <time>2014-01-29T14:13:30Z</time>
      </trkpt>
      <trkpt lat="46.54024" lon="-1.80182">
        <ele>2</ele>
        <time>2014-01-29T14:13:57Z</time>
      </trkpt>
      <trkpt lat="46.54024" lon="-1.80182">
        <ele>2</ele>
        <time>2014-01-29T14:14:16Z</time>
      </trkpt>
      <trkpt lat="46.54024" lon="-1.80182">
        <ele>2</ele>
        <time>2014-01-29T14:14:33Z</time>
      </trkpt>
      <trkpt lat="46.54024" lon="-1.80182">
        <ele>2</ele>
        <time>2014-01-29T14:14:51Z</time>
      </trkpt>
      <trkpt lat="46.54025" lon="-1.80182">
        <ele>2</ele>
        <time>2014-01-29T14:15:18Z</time>
      </trkpt>
      <trkpt lat="46.54024" lon="-1.80182">
        <ele>2</ele>
        <time>2014-01-29T14:15:47Z</time>
      </trkpt>
      <trkpt lat="46.54024" lon="-1.80182">
        <ele>2</ele>
        <time>2014-01-29T14:16:03Z</time>
      </trkpt>
      <trkpt lat="46.54028" lon="-1.80186">
        <ele>2</ele>
        <time>2014-01-29T14:16:16Z</time>
      </trkpt>
      <trkpt lat="46.54028" lon="-1.80187">
        <ele>2</ele>
        <time>2014-01-29T14:16:17Z</time>
      </trkpt>
      <trkpt lat="46.54022" lon="-1.80201">
        <ele>2</ele>
        <time>2014-01-29T14:16:30Z</time>
      </trkpt>
      <trkpt lat="46.54018" lon="-1.80212">
        <ele>1</ele>
        <time>2014-01-29T14:16:41Z</time>
      </trkpt>
      <trkpt lat="46.54008" lon="-1.80224">
        <ele>1</ele>
        <time>2014-01-29T14:16:55Z</time>
      </trkpt>
      <trkpt lat="46.54003" lon="-1.80233">
        <ele>1</ele>
        <time>2014-01-29T14:17:07Z</time>
      </trkpt>
      <trkpt lat="46.53993" lon="-1.80246">
        <ele>1</ele>
        <time>2014-01-29T14:17:21Z</time>
      </trkpt>
      <trkpt lat="46.53989" lon="-1.80251">
        <ele>1</ele>
        <time>2014-01-29T14:17:27Z</time>
      </trkpt>
      <trkpt lat="46.53987" lon="-1.80253">
        <ele>1</ele>
        <time>2014-01-29T14:17:30Z</time>
      </trkpt>
      <trkpt lat="46.53986" lon="-1.80256">
        <ele>1</ele>
        <time>2014-01-29T14:17:32Z</time>
      </trkpt>
      <trkpt lat="46.53977" lon="-1.80269">
        <ele>1</ele>
        <time>2014-01-29T14:17:46Z</time>
      </trkpt>
      <trkpt lat="46.53967" lon="-1.80279">
        <ele>1</ele>
        <time>2014-01-29T14:17:57Z</time>
      </trkpt>
      <trkpt lat="46.53959" lon="-1.80289">
        <ele>1</ele>
        <time>2014-01-29T14:18:09Z</time>
      </trkpt>
      <trkpt lat="46.5395" lon="-1.803">
        <ele>1</ele>
        <time>2014-01-29T14:18:21Z</time>
      </trkpt>
      <trkpt lat="46.53941" lon="-1.8031">
        <ele>1</ele>
        <time>2014-01-29T14:18:33Z</time>
      </trkpt>
      <trkpt lat="46.5393" lon="-1.80319">
        <ele>1</ele>
        <time>2014-01-29T14:18:46Z</time>
      </trkpt>
      <trkpt lat="46.53928" lon="-1.8032">
        <ele>1</ele>
        <time>2014-01-29T14:18:48Z</time>
      </trkpt>
      <trkpt lat="46.53916" lon="-1.80329">
        <ele>1</ele>
        <time>2014-01-29T14:19:01Z</time>
      </trkpt>
      <trkpt lat="46.53906" lon="-1.80338">
        <ele>1</ele>
        <time>2014-01-29T14:19:12Z</time>
      </trkpt>
      <trkpt lat="46.53893" lon="-1.80348">
        <ele>1</ele>
        <time>2014-01-29T14:19:25Z</time>
      </trkpt>
      <trkpt lat="46.53886" lon="-1.80354">
        <ele>1</ele>
        <time>2014-01-29T14:19:32Z</time>
      </trkpt>
      <trkpt lat="46.53873" lon="-1.80362">
        <ele>1</ele>
        <time>2014-01-29T14:19:44Z</time>
      </trkpt>
      <trkpt lat="46.53859" lon="-1.80372">
        <ele>1</ele>
        <time>2014-01-29T14:19:57Z</time>
      </trkpt>
      <trkpt lat="46.53848" lon="-1.8038">
        <ele>1</ele>
        <time>2014-01-29T14:20:09Z</time>
      </trkpt>
      <trkpt lat="46.53842" lon="-1.80384">
        <ele>1</ele>
        <time>2014-01-29T14:20:15Z</time>
      </trkpt>
      <trkpt lat="46.53833" lon="-1.80388">
        <ele>1</ele>
        <time>2014-01-29T14:20:24Z</time>
      </trkpt>
      <trkpt lat="46.5382" lon="-1.80396">
        <ele>2</ele>
        <time>2014-01-29T14:20:38Z</time>
      </trkpt>
      <trkpt lat="46.53806" lon="-1.80404">
        <ele>2</ele>
        <time>2014-01-29T14:20:52Z</time>
      </trkpt>
      <trkpt lat="46.53795" lon="-1.8041">
        <ele>2</ele>
        <time>2014-01-29T14:21:04Z</time>
      </trkpt>
      <trkpt lat="46.53783" lon="-1.80416">
        <ele>2</ele>
        <time>2014-01-29T14:21:17Z</time>
      </trkpt>
      <trkpt lat="46.53769" lon="-1.80422">
        <ele>2.3</ele>
        <time>2014-01-29T14:21:31Z</time>
      </trkpt>
      <trkpt lat="46.53767" lon="-1.80423">
        <ele>2.2</ele>
        <time>2014-01-29T14:21:46Z</time>
      </trkpt>
      <trkpt lat="46.53763" lon="-1.80426">
        <ele>2</ele>
        <time>2014-01-29T14:21:59Z</time>
      </trkpt>
      <trkpt lat="46.53763" lon="-1.80426">
        <ele>2</ele>
        <time>2014-01-29T14:22:24Z</time>
      </trkpt>
      <trkpt lat="46.53762" lon="-1.80426">
        <ele>1.9</ele>
        <time>2014-01-29T14:22:43Z</time>
      </trkpt>
      <trkpt lat="46.53757" lon="-1.80428">
        <ele>1.7</ele>
        <time>2014-01-29T14:22:59Z</time>
      </trkpt>
      <trkpt lat="46.5374" lon="-1.80434">
        <ele>1</ele>
        <time>2014-01-29T14:23:14Z</time>
      </trkpt>
      <trkpt lat="46.53728" lon="-1.8044">
        <ele>1</ele>
        <time>2014-01-29T14:23:28Z</time>
      </trkpt>
      <trkpt lat="46.53711" lon="-1.80448">
        <ele>1</ele>
        <time>2014-01-29T14:23:43Z</time>
      </trkpt>
      <trkpt lat="46.53697" lon="-1.80454">
        <ele>1</ele>
        <time>2014-01-29T14:23:56Z</time>
      </trkpt>
      <trkpt lat="46.53693" lon="-1.80457">
        <ele>1</ele>
        <time>2014-01-29T14:24:07Z</time>
      </trkpt>
      <trkpt lat="46.53679" lon="-1.80462">
        <ele>1</ele>
        <time>2014-01-29T14:24:19Z</time>
      </trkpt>
      <trkpt lat="46.53666" lon="-1.80468">
        <ele>1</ele>
        <time>2014-01-29T14:24:31Z</time>
      </trkpt>
      <trkpt lat="46.53652" lon="-1.80475">
        <ele>1</ele>
        <time>2014-01-29T14:24:43Z</time>
      </trkpt>
      <trkpt lat="46.5364" lon="-1.8048">
        <ele>1</ele>
        <time>2014-01-29T14:24:55Z</time>
      </trkpt>
      <trkpt lat="46.53627" lon="-1.80484">
        <ele>1</ele>
        <time>2014-01-29T14:25:07Z</time>
      </trkpt>
      <trkpt lat="46.53613" lon="-1.80494">
        <ele>1</ele>
        <time>2014-01-29T14:25:22Z</time>
      </trkpt>
      <trkpt lat="46.53606" lon="-1.805">
        <ele>1</ele>
        <time>2014-01-29T14:25:30Z</time>
      </trkpt>
      <trkpt lat="46.53604" lon="-1.80501">
        <ele>1</ele>
        <time>2014-01-29T14:25:32Z</time>
      </trkpt>
      <trkpt lat="46.536" lon="-1.80504">
        <ele>1</ele>
        <time>2014-01-29T14:25:36Z</time>
      </trkpt>
      <trkpt lat="46.53592" lon="-1.80512">
        <ele>1</ele>
        <time>2014-01-29T14:25:44Z</time>
      </trkpt>
      <trkpt lat="46.5358" lon="-1.80524">
        <ele>1</ele>
        <time>2014-01-29T14:25:57Z</time>
      </trkpt>
      <trkpt lat="46.53567" lon="-1.80535">
        <ele>1</ele>
        <time>2014-01-29T14:26:11Z</time>
      </trkpt>
      <trkpt lat="46.53558" lon="-1.80543">
        <ele>1</ele>
        <time>2014-01-29T14:26:22Z</time>
      </trkpt>
      <trkpt lat="46.53555" lon="-1.80545">
        <ele>1</ele>
        <time>2014-01-29T14:26:24Z</time>
      </trkpt>
      <trkpt lat="46.53553" lon="-1.80547">
        <ele>1</ele>
        <time>2014-01-29T14:26:27Z</time>
      </trkpt>
      <trkpt lat="46.53539" lon="-1.80558">
        <ele>1</ele>
        <time>2014-01-29T14:26:41Z</time>
      </trkpt>
      <trkpt lat="46.53527" lon="-1.80565">
        <ele>1</ele>
        <time>2014-01-29T14:26:53Z</time>
      </trkpt>
      <trkpt lat="46.53517" lon="-1.80574">
        <ele>1</ele>
        <time>2014-01-29T14:27:03Z</time>
      </trkpt>
      <trkpt lat="46.53504" lon="-1.80585">
        <ele>1</ele>
        <time>2014-01-29T14:27:17Z</time>
      </trkpt>
      <trkpt lat="46.53491" lon="-1.80594">
        <ele>2</ele>
        <time>2014-01-29T14:27:29Z</time>
      </trkpt>
      <trkpt lat="46.53479" lon="-1.80602">
        <ele>2</ele>
        <time>2014-01-29T14:27:41Z</time>
      </trkpt>
      <trkpt lat="46.53466" lon="-1.80611">
        <ele>2</ele>
        <time>2014-01-29T14:27:53Z</time>
      </trkpt>
      <trkpt lat="46.53453" lon="-1.80618">
        <ele>2</ele>
        <time>2014-01-29T14:28:05Z</time>
      </trkpt>
      <trkpt lat="46.53442" lon="-1.80625">
        <ele>2</ele>
        <time>2014-01-29T14:28:17Z</time>
      </trkpt>
      <trkpt lat="46.53433" lon="-1.8062">
        <ele>2</ele>
        <time>2014-01-29T14:28:31Z</time>
      </trkpt>
      <trkpt lat="46.53428" lon="-1.80614">
        <ele>2</ele>
        <time>2014-01-29T14:28:44Z</time>
      </trkpt>
      <trkpt lat="46.53428" lon="-1.80613">
        <ele>2</ele>
        <time>2014-01-29T14:28:59Z</time>
      </trkpt>
      <trkpt lat="46.53429" lon="-1.80613">
        <ele>2</ele>
        <time>2014-01-29T14:29:14Z</time>
      </trkpt>
      <trkpt lat="46.53428" lon="-1.80613">
        <ele>2</ele>
        <time>2014-01-29T14:29:29Z</time>
      </trkpt>
      <trkpt lat="46.53429" lon="-1.80612">
        <ele>2</ele>
        <time>2014-01-29T14:29:48Z</time>
      </trkpt>
      <trkpt lat="46.5343" lon="-1.80612">
        <ele>2</ele>
        <time>2014-01-29T14:30:10Z</time>
      </trkpt>
      <trkpt lat="46.5343" lon="-1.80612">
        <ele>2</ele>
        <time>2014-01-29T14:30:32Z</time>
      </trkpt>
      <trkpt lat="46.5343" lon="-1.80612">
        <ele>2</ele>
        <time>2014-01-29T14:30:57Z</time>
      </trkpt>
      <trkpt lat="46.53431" lon="-1.80612">
        <ele>2</ele>
        <time>2014-01-29T14:31:10Z</time>
      </trkpt>
      <trkpt lat="46.53431" lon="-1.80611">
        <ele>2</ele>
        <time>2014-01-29T14:31:23Z</time>
      </trkpt>
      <trkpt lat="46.53431" lon="-1.80611">
        <ele>2</ele>
        <time>2014-01-29T14:31:44Z</time>
      </trkpt>
      <trkpt lat="46.53431" lon="-1.80611">
        <ele>2</ele>
        <time>2014-01-29T14:32:04Z</time>
      </trkpt>
      <trkpt lat="46.53431" lon="-1.80611">
        <ele>2</ele>
        <time>2014-01-29T14:32:18Z</time>
      </trkpt>
      <trkpt lat="46.53429" lon="-1.8061">
        <ele>2</ele>
        <time>2014-01-29T14:32:29Z</time>
      </trkpt>
      <trkpt lat="46.5343" lon="-1.80611">
        <ele>2</ele>
        <time>2014-01-29T14:32:59Z</time>
      </trkpt>
      <trkpt lat="46.5343" lon="-1.80611">
        <ele>2</ele>
        <time>2014-01-29T14:33:25Z</time>
      </trkpt>
      <trkpt lat="46.5343" lon="-1.80611">
        <ele>2</ele>
        <time>2014-01-29T14:33:41Z</time>
      </trkpt>
      <trkpt lat="46.5343" lon="-1.80611">
        <ele>2</ele>
        <time>2014-01-29T14:33:54Z</time>
      </trkpt>
      <trkpt lat="46.53428" lon="-1.80607">
        <ele>2</ele>
        <time>2014-01-29T14:33:58Z</time>
      </trkpt>
      <trkpt lat="46.5342" lon="-1.80589">
        <ele>2</ele>
        <time>2014-01-29T14:34:11Z</time>
      </trkpt>
      <trkpt lat="46.53415" lon="-1.80576">
        <ele>1</ele>
        <time>2014-01-29T14:34:21Z</time>
      </trkpt>
      <trkpt lat="46.53411" lon="-1.80556">
        <ele>1</ele>
        <time>2014-01-29T14:34:36Z</time>
      </trkpt>
      <trkpt lat="46.53407" lon="-1.80537">
        <ele>1</ele>
        <time>2014-01-29T14:34:48Z</time>
      </trkpt>
      <trkpt lat="46.53404" lon="-1.80518">
        <ele>1</ele>
        <time>2014-01-29T14:35:01Z</time>
      </trkpt>
      <trkpt lat="46.534" lon="-1.80501">
        <ele>1</ele>
        <time>2014-01-29T14:35:13Z</time>
      </trkpt>
      <trkpt lat="46.53395" lon="-1.80487">
        <ele>1</ele>
        <time>2014-01-29T14:35:23Z</time>
      </trkpt>
      <trkpt lat="46.53387" lon="-1.80465">
        <ele>1</ele>
        <time>2014-01-29T14:35:38Z</time>
      </trkpt>
      <trkpt lat="46.53381" lon="-1.80447">
        <ele>1</ele>
        <time>2014-01-29T14:35:50Z</time>
      </trkpt>
      <trkpt lat="46.53372" lon="-1.80431">
        <ele>1</ele>
        <time>2014-01-29T14:36:02Z</time>
      </trkpt>
      <trkpt lat="46.5337" lon="-1.80428">
        <ele>1</ele>
        <time>2014-01-29T14:36:05Z</time>
      </trkpt>
      <trkpt lat="46.5336" lon="-1.80414">
        <ele>2</ele>
        <time>2014-01-29T14:36:18Z</time>
      </trkpt>
      <trkpt lat="46.53356" lon="-1.8041">
        <ele>2</ele>
        <time>2014-01-29T14:36:22Z</time>
      </trkpt>
      <trkpt lat="46.53354" lon="-1.80407">
        <ele>2</ele>
        <time>2014-01-29T14:36:24Z</time>
      </trkpt>
      <trkpt lat="46.53349" lon="-1.80404">
        <ele>2</ele>
        <time>2014-01-29T14:36:28Z</time>
      </trkpt>
      <trkpt lat="46.53336" lon="-1.80395">
        <ele>2</ele>
        <time>2014-01-29T14:36:41Z</time>
      </trkpt>
      <trkpt lat="46.53334" lon="-1.80393">
        <ele>2</ele>
        <time>2014-01-29T14:36:43Z</time>
      </trkpt>
      <trkpt lat="46.53332" lon="-1.80391">
        <ele>2</ele>
        <time>2014-01-29T14:36:45Z</time>
      </trkpt>
      <trkpt lat="46.53328" lon="-1.80387">
        <ele>2</ele>
        <time>2014-01-29T14:36:50Z</time>
      </trkpt>
      <trkpt lat="46.53326" lon="-1.80384">
        <ele>2</ele>
        <time>2014-01-29T14:36:53Z</time>
      </trkpt>
      <trkpt lat="46.53313" lon="-1.80372">
        <ele>2</ele>
        <time>2014-01-29T14:37:07Z</time>
      </trkpt>
      <trkpt lat="46.53301" lon="-1.80356">
        <ele>2</ele>
        <time>2014-01-29T14:37:21Z</time>
      </trkpt>
      <trkpt lat="46.53288" lon="-1.80342">
        <ele>2</ele>
        <time>2014-01-29T14:37:34Z</time>
      </trkpt>
      <trkpt lat="46.53279" lon="-1.8033">
        <ele>2</ele>
        <time>2014-01-29T14:37:45Z</time>
      </trkpt>
      <trkpt lat="46.53272" lon="-1.80319">
        <ele>2</ele>
        <time>2014-01-29T14:37:54Z</time>
      </trkpt>
      <trkpt lat="46.53264" lon="-1.80298">
        <ele>2</ele>
        <time>2014-01-29T14:38:08Z</time>
      </trkpt>
      <trkpt lat="46.53263" lon="-1.80296">
        <ele>2</ele>
        <time>2014-01-29T14:38:09Z</time>
      </trkpt>
      <trkpt lat="46.53263" lon="-1.80293">
        <ele>2</ele>
        <time>2014-01-29T14:38:11Z</time>
      </trkpt>
      <trkpt lat="46.53257" lon="-1.80272">
        <ele>1</ele>
        <time>2014-01-29T14:38:24Z</time>
      </trkpt>
      <trkpt lat="46.53255" lon="-1.80263">
        <ele>1</ele>
        <time>2014-01-29T14:38:29Z</time>
      </trkpt>
      <trkpt lat="46.53254" lon="-1.80245">
        <ele>1</ele>
        <time>2014-01-29T14:38:39Z</time>
      </trkpt>
      <trkpt lat="46.53252" lon="-1.80223">
        <ele>1</ele>
        <time>2014-01-29T14:38:52Z</time>
      </trkpt>
      <trkpt lat="46.53253" lon="-1.80203">
        <ele>1</ele>
        <time>2014-01-29T14:39:04Z</time>
      </trkpt>
      <trkpt lat="46.5325" lon="-1.80182">
        <ele>1</ele>
        <time>2014-01-29T14:39:16Z</time>
      </trkpt>
      <trkpt lat="46.5325" lon="-1.80162">
        <ele>1</ele>
        <time>2014-01-29T14:39:28Z</time>
      </trkpt>
      <trkpt lat="46.53251" lon="-1.8014">
        <ele>2</ele>
        <time>2014-01-29T14:39:41Z</time>
      </trkpt>
      <trkpt lat="46.53256" lon="-1.80118">
        <ele>2</ele>
        <time>2014-01-29T14:39:54Z</time>
      </trkpt>
      <trkpt lat="46.53259" lon="-1.80097">
        <ele>2</ele>
        <time>2014-01-29T14:40:07Z</time>
      </trkpt>
      <trkpt lat="46.53261" lon="-1.80077">
        <ele>2</ele>
        <time>2014-01-29T14:40:19Z</time>
      </trkpt>
      <trkpt lat="46.53262" lon="-1.80055">
        <ele>2</ele>
        <time>2014-01-29T14:40:31Z</time>
      </trkpt>
      <trkpt lat="46.53264" lon="-1.80036">
        <ele>2</ele>
        <time>2014-01-29T14:40:43Z</time>
      </trkpt>
      <trkpt lat="46.53267" lon="-1.80013">
        <ele>2</ele>
        <time>2014-01-29T14:40:56Z</time>
      </trkpt>
      <trkpt lat="46.53271" lon="-1.79995">
        <ele>2</ele>
        <time>2014-01-29T14:41:07Z</time>
      </trkpt>
      <trkpt lat="46.53274" lon="-1.79976">
        <ele>2</ele>
        <time>2014-01-29T14:41:18Z</time>
      </trkpt>
      <trkpt lat="46.53281" lon="-1.79957">
        <ele>2</ele>
        <time>2014-01-29T14:41:31Z</time>
      </trkpt>
      <trkpt lat="46.53283" lon="-1.79953">
        <ele>2</ele>
        <time>2014-01-29T14:41:34Z</time>
      </trkpt>
      <trkpt lat="46.53291" lon="-1.79948">
        <ele>2</ele>
        <time>2014-01-29T14:41:43Z</time>
      </trkpt>
      <trkpt lat="46.53306" lon="-1.79951">
        <ele>2</ele>
        <time>2014-01-29T14:41:57Z</time>
      </trkpt>
      <trkpt lat="46.53319" lon="-1.79945">
        <ele>2</ele>
        <time>2014-01-29T14:42:09Z</time>
      </trkpt>
      <trkpt lat="46.53329" lon="-1.79928">
        <ele>3</ele>
        <time>2014-01-29T14:42:22Z</time>
      </trkpt>
      <trkpt lat="46.53335" lon="-1.79913">
        <ele>3</ele>
        <time>2014-01-29T14:42:33Z</time>
      </trkpt>
      <trkpt lat="46.53337" lon="-1.79897">
        <ele>3</ele>
        <time>2014-01-29T14:42:43Z</time>
      </trkpt>
      <trkpt lat="46.5334" lon="-1.79884">
        <ele>3</ele>
        <time>2014-01-29T14:42:51Z</time>
      </trkpt>
      <trkpt lat="46.53339" lon="-1.79881">
        <ele>3</ele>
        <time>2014-01-29T14:42:53Z</time>
      </trkpt>
      <trkpt lat="46.5333" lon="-1.79864">
        <ele>3</ele>
        <time>2014-01-29T14:43:07Z</time>
      </trkpt>
      <trkpt lat="46.53331" lon="-1.79847">
        <ele>3</ele>
        <time>2014-01-29T14:43:18Z</time>
      </trkpt>
      <trkpt lat="46.53333" lon="-1.79837">
        <ele>4</ele>
        <time>2014-01-29T14:43:24Z</time>
      </trkpt>
      <trkpt lat="46.53336" lon="-1.79824">
        <ele>4</ele>
        <time>2014-01-29T14:43:32Z</time>
      </trkpt>
      <trkpt lat="46.53337" lon="-1.79821">
        <ele>4</ele>
        <time>2014-01-29T14:43:34Z</time>
      </trkpt>
      <trkpt lat="46.53341" lon="-1.79812">
        <ele>4</ele>
        <time>2014-01-29T14:43:40Z</time>
      </trkpt>
      <trkpt lat="46.53345" lon="-1.79793">
        <ele>4</ele>
        <time>2014-01-29T14:43:52Z</time>
      </trkpt>
      <trkpt lat="46.5335" lon="-1.79778">
        <ele>3</ele>
        <time>2014-01-29T14:44:02Z</time>
      </trkpt>
      <trkpt lat="46.53352" lon="-1.79759">
        <ele>3</ele>
        <time>2014-01-29T14:44:14Z</time>
      </trkpt>
      <trkpt lat="46.53355" lon="-1.79741">
        <ele>3</ele>
        <time>2014-01-29T14:44:25Z</time>
      </trkpt>
      <trkpt lat="46.53357" lon="-1.79721">
        <ele>3</ele>
        <time>2014-01-29T14:44:38Z</time>
      </trkpt>
      <trkpt lat="46.53357" lon="-1.79718">
        <ele>3</ele>
        <time>2014-01-29T14:44:40Z</time>
      </trkpt>
      <trkpt lat="46.5336" lon="-1.79697">
        <ele>3</ele>
        <time>2014-01-29T14:44:53Z</time>
      </trkpt>
      <trkpt lat="46.5336" lon="-1.79695">
        <ele>3</ele>
        <time>2014-01-29T14:44:54Z</time>
      </trkpt>
      <trkpt lat="46.5336" lon="-1.79674">
        <ele>3</ele>
        <time>2014-01-29T14:45:07Z</time>
      </trkpt>
      <trkpt lat="46.53359" lon="-1.79652">
        <ele>3</ele>
        <time>2014-01-29T14:45:22Z</time>
      </trkpt>
      <trkpt lat="46.53359" lon="-1.79631">
        <ele>3</ele>
        <time>2014-01-29T14:45:33Z</time>
      </trkpt>
      <trkpt lat="46.53358" lon="-1.79611">
        <ele>3</ele>
        <time>2014-01-29T14:45:45Z</time>
      </trkpt>
      <trkpt lat="46.53357" lon="-1.79593">
        <ele>3</ele>
        <time>2014-01-29T14:45:56Z</time>
      </trkpt>
      <trkpt lat="46.53355" lon="-1.79575">
        <ele>2</ele>
        <time>2014-01-29T14:46:07Z</time>
      </trkpt>
      <trkpt lat="46.53353" lon="-1.79561">
        <ele>2</ele>
        <time>2014-01-29T14:46:16Z</time>
      </trkpt>
      <trkpt lat="46.53348" lon="-1.79544">
        <ele>2</ele>
        <time>2014-01-29T14:46:31Z</time>
      </trkpt>
      <trkpt lat="46.53348" lon="-1.79544">
        <ele>2</ele>
        <time>2014-01-29T14:46:38Z</time>
      </trkpt>
      <trkpt lat="46.53337" lon="-1.79542">
        <ele>2</ele>
        <time>2014-01-29T14:46:51Z</time>
      </trkpt>
      <trkpt lat="46.53335" lon="-1.79541">
        <ele>2</ele>
        <time>2014-01-29T14:47:03Z</time>
      </trkpt>
      <trkpt lat="46.53333" lon="-1.79529">
        <ele>1</ele>
        <time>2014-01-29T14:47:12Z</time>
      </trkpt>
      <trkpt lat="46.53333" lon="-1.79518">
        <ele>1</ele>
        <time>2014-01-29T14:47:23Z</time>
      </trkpt>
      <trkpt lat="46.53332" lon="-1.79501">
        <ele>1</ele>
        <time>2014-01-29T14:47:34Z</time>
      </trkpt>
      <trkpt lat="46.53331" lon="-1.79477">
        <ele>2</ele>
        <time>2014-01-29T14:47:48Z</time>
      </trkpt>
      <trkpt lat="46.5333" lon="-1.79457">
        <ele>2</ele>
        <time>2014-01-29T14:48:01Z</time>
      </trkpt>
      <trkpt lat="46.53329" lon="-1.79437">
        <ele>2</ele>
        <time>2014-01-29T14:48:13Z</time>
      </trkpt>
      <trkpt lat="46.53329" lon="-1.79419">
        <ele>2</ele>
        <time>2014-01-29T14:48:24Z</time>
      </trkpt>
      <trkpt lat="46.53328" lon="-1.79403">
        <ele>2</ele>
        <time>2014-01-29T14:48:34Z</time>
      </trkpt>
      <trkpt lat="46.53327" lon="-1.79391">
        <ele>2</ele>
        <time>2014-01-29T14:48:42Z</time>
      </trkpt>
      <trkpt lat="46.53327" lon="-1.79375">
        <ele>3</ele>
        <time>2014-01-29T14:48:52Z</time>
      </trkpt>
      <trkpt lat="46.53327" lon="-1.7937">
        <ele>3</ele>
        <time>2014-01-29T14:48:55Z</time>
      </trkpt>
      <trkpt lat="46.53326" lon="-1.79364">
        <ele>3</ele>
        <time>2014-01-29T14:48:59Z</time>
      </trkpt>
      <trkpt lat="46.53322" lon="-1.79363">
        <ele>3</ele>
        <time>2014-01-29T14:49:04Z</time>
      </trkpt>
      <trkpt lat="46.53307" lon="-1.79362">
        <ele>3</ele>
        <time>2014-01-29T14:49:17Z</time>
      </trkpt>
      <trkpt lat="46.53299" lon="-1.79362">
        <ele>3</ele>
        <time>2014-01-29T14:49:23Z</time>
      </trkpt>
      <trkpt lat="46.53284" lon="-1.7936">
        <ele>2</ele>
        <time>2014-01-29T14:49:36Z</time>
      </trkpt>
      <trkpt lat="46.5327" lon="-1.7936">
        <ele>2</ele>
        <time>2014-01-29T14:49:49Z</time>
      </trkpt>
      <trkpt lat="46.53269" lon="-1.7936">
        <ele>2</ele>
        <time>2014-01-29T14:49:50Z</time>
      </trkpt>
      <trkpt lat="46.53257" lon="-1.7936">
        <ele>2</ele>
        <time>2014-01-29T14:50:02Z</time>
      </trkpt>
      <trkpt lat="46.53253" lon="-1.7936">
        <ele>2</ele>
        <time>2014-01-29T14:50:05Z</time>
      </trkpt>
      <trkpt lat="46.53236" lon="-1.79355">
        <ele>3</ele>
        <time>2014-01-29T14:50:19Z</time>
      </trkpt>
      <trkpt lat="46.53225" lon="-1.79351">
        <ele>3</ele>
        <time>2014-01-29T14:50:30Z</time>
      </trkpt>
      <trkpt lat="46.53209" lon="-1.79343">
        <ele>3</ele>
        <time>2014-01-29T14:50:45Z</time>
      </trkpt>
      <trkpt lat="46.53209" lon="-1.7934">
        <ele>3</ele>
        <time>2014-01-29T14:50:58Z</time>
      </trkpt>
      <trkpt lat="46.53209" lon="-1.79341">
        <ele>3</ele>
        <time>2014-01-29T14:51:11Z</time>
      </trkpt>
      <trkpt lat="46.53206" lon="-1.79339">
        <ele>4</ele>
        <time>2014-01-29T14:51:22Z</time>
      </trkpt>
      <trkpt lat="46.53198" lon="-1.79334">
        <ele>4</ele>
        <time>2014-01-29T14:51:31Z</time>
      </trkpt>
      <trkpt lat="46.53195" lon="-1.79333">
        <ele>4</ele>
        <time>2014-01-29T14:51:33Z</time>
      </trkpt>
      <trkpt lat="46.53175" lon="-1.79326">
        <ele>5</ele>
        <time>2014-01-29T14:51:48Z</time>
      </trkpt>
      <trkpt lat="46.53165" lon="-1.79317">
        <ele>6</ele>
        <time>2014-01-29T14:52:01Z</time>
      </trkpt>
      <trkpt lat="46.53164" lon="-1.79311">
        <ele>6</ele>
        <time>2014-01-29T14:52:13Z</time>
      </trkpt>
      <trkpt lat="46.53161" lon="-1.79311">
        <ele>6</ele>
        <time>2014-01-29T14:52:26Z</time>
      </trkpt>
      <trkpt lat="46.53158" lon="-1.79311">
        <ele>6</ele>
        <time>2014-01-29T14:52:41Z</time>
      </trkpt>
      <trkpt lat="46.53157" lon="-1.79309">
        <ele>6</ele>
        <time>2014-01-29T14:53:09Z</time>
      </trkpt>
      <trkpt lat="46.53154" lon="-1.79308">
        <ele>6</ele>
        <time>2014-01-29T14:53:30Z</time>
      </trkpt>
      <trkpt lat="46.53142" lon="-1.79305">
        <ele>6</ele>
        <time>2014-01-29T14:53:41Z</time>
      </trkpt>
      <trkpt lat="46.53123" lon="-1.79294">
        <ele>7</ele>
        <time>2014-01-29T14:53:57Z</time>
      </trkpt>
      <trkpt lat="46.53108" lon="-1.7929">
        <ele>7</ele>
        <time>2014-01-29T14:54:10Z</time>
      </trkpt>
      <trkpt lat="46.53091" lon="-1.79285">
        <ele>7</ele>
        <time>2014-01-29T14:54:24Z</time>
      </trkpt>
      <trkpt lat="46.53077" lon="-1.79283">
        <ele>8</ele>
        <time>2014-01-29T14:54:36Z</time>
      </trkpt>
      <trkpt lat="46.53057" lon="-1.79286">
        <ele>8</ele>
        <time>2014-01-29T14:54:52Z</time>
      </trkpt>
      <trkpt lat="46.53044" lon="-1.79291">
        <ele>8</ele>
        <time>2014-01-29T14:55:04Z</time>
      </trkpt>
      <trkpt lat="46.53033" lon="-1.79297">
        <ele>8</ele>
        <time>2014-01-29T14:55:15Z</time>
      </trkpt>
      <trkpt lat="46.53019" lon="-1.79303">
        <ele>8</ele>
        <time>2014-01-29T14:55:28Z</time>
      </trkpt>
      <trkpt lat="46.53004" lon="-1.79304">
        <ele>9</ele>
        <time>2014-01-29T14:55:41Z</time>
      </trkpt>
      <trkpt lat="46.53" lon="-1.79299">
        <ele>9</ele>
        <time>2014-01-29T14:55:46Z</time>
      </trkpt>
      <trkpt lat="46.52999" lon="-1.79282">
        <ele>10</ele>
        <time>2014-01-29T14:55:58Z</time>
      </trkpt>
      <trkpt lat="46.53" lon="-1.79268">
        <ele>9</ele>
        <time>2014-01-29T14:56:08Z</time>
      </trkpt>
      <trkpt lat="46.53" lon="-1.79265">
        <ele>9</ele>
        <time>2014-01-29T14:56:10Z</time>
      </trkpt>
      <trkpt lat="46.53002" lon="-1.79248">
        <ele>9</ele>
        <time>2014-01-29T14:56:21Z</time>
      </trkpt>
      <trkpt lat="46.53003" lon="-1.7923">
        <ele>9</ele>
        <time>2014-01-29T14:56:33Z</time>
      </trkpt>
      <trkpt lat="46.53003" lon="-1.79224">
        <ele>9</ele>
        <time>2014-01-29T14:56:37Z</time>
      </trkpt>
      <trkpt lat="46.53003" lon="-1.79219">
        <ele>9</ele>
        <time>2014-01-29T14:56:40Z</time>
      </trkpt>
      <trkpt lat="46.53002" lon="-1.792">
        <ele>10</ele>
        <time>2014-01-29T14:56:52Z</time>
      </trkpt>
      <trkpt lat="46.53003" lon="-1.79195">
        <ele>10</ele>
        <time>2014-01-29T14:56:55Z</time>
      </trkpt>
      <trkpt lat="46.53001" lon="-1.79184">
        <ele>10</ele>
        <time>2014-01-29T14:57:02Z</time>
      </trkpt>
      <trkpt lat="46.53001" lon="-1.79181">
        <ele>10</ele>
        <time>2014-01-29T14:57:04Z</time>
      </trkpt>
      <trkpt lat="46.53" lon="-1.79174">
        <ele>11</ele>
        <time>2014-01-29T14:57:09Z</time>
      </trkpt>
      <trkpt lat="46.52998" lon="-1.79161">
        <ele>11</ele>
        <time>2014-01-29T14:57:18Z</time>
      </trkpt>
      <trkpt lat="46.52997" lon="-1.79158">
        <ele>12</ele>
        <time>2014-01-29T14:57:20Z</time>
      </trkpt>
      <trkpt lat="46.52993" lon="-1.79139">
        <ele>12</ele>
        <time>2014-01-29T14:57:33Z</time>
      </trkpt>
      <trkpt lat="46.5299" lon="-1.79118">
        <ele>13</ele>
        <time>2014-01-29T14:57:46Z</time>
      </trkpt>
      <trkpt lat="46.52989" lon="-1.79114">
        <ele>13</ele>
        <time>2014-01-29T14:57:49Z</time>
      </trkpt>
      <trkpt lat="46.52988" lon="-1.79103">
        <ele>13</ele>
        <time>2014-01-29T14:57:56Z</time>
      </trkpt>
      <trkpt lat="46.52985" lon="-1.79082">
        <ele>13</ele>
        <time>2014-01-29T14:58:10Z</time>
      </trkpt>
      <trkpt lat="46.52981" lon="-1.79064">
        <ele>14</ele>
        <time>2014-01-29T14:58:22Z</time>
      </trkpt>
      <trkpt lat="46.5298" lon="-1.79055">
        <ele>14</ele>
        <time>2014-01-29T14:58:28Z</time>
      </trkpt>
      <trkpt lat="46.52979" lon="-1.79047">
        <ele>14</ele>
        <time>2014-01-29T14:58:33Z</time>
      </trkpt>
      <trkpt lat="46.52977" lon="-1.79026">
        <ele>14</ele>
        <time>2014-01-29T14:58:46Z</time>
      </trkpt>
      <trkpt lat="46.52977" lon="-1.79024">
        <ele>14</ele>
        <time>2014-01-29T14:58:47Z</time>
      </trkpt>
      <trkpt lat="46.52975" lon="-1.79014">
        <ele>14</ele>
        <time>2014-01-29T14:58:54Z</time>
      </trkpt>
      <trkpt lat="46.52975" lon="-1.79012">
        <ele>14</ele>
        <time>2014-01-29T14:58:55Z</time>
      </trkpt>
      <trkpt lat="46.52975" lon="-1.79011">
        <ele>14</ele>
        <time>2014-01-29T14:58:56Z</time>
      </trkpt>
      <trkpt lat="46.52974" lon="-1.79006">
        <ele>14</ele>
        <time>2014-01-29T14:58:59Z</time>
      </trkpt>
      <trkpt lat="46.52974" lon="-1.79004">
        <ele>14</ele>
        <time>2014-01-29T14:59:00Z</time>
      </trkpt>
      <trkpt lat="46.52974" lon="-1.79003">
        <ele>14</ele>
        <time>2014-01-29T14:59:01Z</time>
      </trkpt>
      <trkpt lat="46.52973" lon="-1.78999">
        <ele>14</ele>
        <time>2014-01-29T14:59:03Z</time>
      </trkpt>
      <trkpt lat="46.52973" lon="-1.78998">
        <ele>14</ele>
        <time>2014-01-29T14:59:04Z</time>
      </trkpt>
      <trkpt lat="46.52972" lon="-1.78991">
        <ele>14</ele>
        <time>2014-01-29T14:59:08Z</time>
      </trkpt>
      <trkpt lat="46.52971" lon="-1.78989">
        <ele>14</ele>
        <time>2014-01-29T14:59:09Z</time>
      </trkpt>
      <trkpt lat="46.52971" lon="-1.78988">
        <ele>14</ele>
        <time>2014-01-29T14:59:10Z</time>
      </trkpt>
      <trkpt lat="46.52966" lon="-1.78965">
        <ele>14</ele>
        <time>2014-01-29T14:59:25Z</time>
      </trkpt>
      <trkpt lat="46.52963" lon="-1.7896">
        <ele>14</ele>
        <time>2014-01-29T14:59:29Z</time>
      </trkpt>
      <trkpt lat="46.52963" lon="-1.78958">
        <ele>14</ele>
        <time>2014-01-29T14:59:30Z</time>
      </trkpt>
      <trkpt lat="46.52962" lon="-1.78957">
        <ele>14</ele>
        <time>2014-01-29T14:59:31Z</time>
      </trkpt>
      <trkpt lat="46.52957" lon="-1.78941">
        <ele>14</ele>
        <time>2014-01-29T14:59:42Z</time>
      </trkpt>
      <trkpt lat="46.5295" lon="-1.78919">
        <ele>14</ele>
        <time>2014-01-29T14:59:56Z</time>
      </trkpt>
      <trkpt lat="46.52947" lon="-1.78901">
        <ele>14</ele>
        <time>2014-01-29T15:00:07Z</time>
      </trkpt>
      <trkpt lat="46.52943" lon="-1.78881">
        <ele>14</ele>
        <time>2014-01-29T15:00:19Z</time>
      </trkpt>
      <trkpt lat="46.52942" lon="-1.78878">
        <ele>14</ele>
        <time>2014-01-29T15:00:21Z</time>
      </trkpt>
      <trkpt lat="46.52939" lon="-1.78857">
        <ele>14</ele>
        <time>2014-01-29T15:00:34Z</time>
      </trkpt>
      <trkpt lat="46.52937" lon="-1.78835">
        <ele>15</ele>
        <time>2014-01-29T15:00:47Z</time>
      </trkpt>
      <trkpt lat="46.52937" lon="-1.78818">
        <ele>15</ele>
        <time>2014-01-29T15:00:57Z</time>
      </trkpt>
      <trkpt lat="46.52937" lon="-1.78808">
        <ele>15</ele>
        <time>2014-01-29T15:01:03Z</time>
      </trkpt>
      <trkpt lat="46.52941" lon="-1.7879">
        <ele>15</ele>
        <time>2014-01-29T15:01:15Z</time>
      </trkpt>
      <trkpt lat="46.52943" lon="-1.78786">
        <ele>15</ele>
        <time>2014-01-29T15:01:18Z</time>
      </trkpt>
      <trkpt lat="46.52947" lon="-1.78775">
        <ele>15</ele>
        <time>2014-01-29T15:01:25Z</time>
      </trkpt>
      <trkpt lat="46.52947" lon="-1.78767">
        <ele>15</ele>
        <time>2014-01-29T15:01:30Z</time>
      </trkpt>
      <trkpt lat="46.52945" lon="-1.78753">
        <ele>15</ele>
        <time>2014-01-29T15:01:38Z</time>
      </trkpt>
      <trkpt lat="46.52942" lon="-1.78732">
        <ele>15</ele>
        <time>2014-01-29T15:01:51Z</time>
      </trkpt>
      <trkpt lat="46.52941" lon="-1.78727">
        <ele>15</ele>
        <time>2014-01-29T15:01:54Z</time>
      </trkpt>
      <trkpt lat="46.52938" lon="-1.78706">
        <ele>15</ele>
        <time>2014-01-29T15:02:07Z</time>
      </trkpt>
      <trkpt lat="46.52935" lon="-1.78688">
        <ele>15</ele>
        <time>2014-01-29T15:02:18Z</time>
      </trkpt>
      <trkpt lat="46.52933" lon="-1.7867">
        <ele>15</ele>
        <time>2014-01-29T15:02:29Z</time>
      </trkpt>
      <trkpt lat="46.52934" lon="-1.7865">
        <ele>15</ele>
        <time>2014-01-29T15:02:41Z</time>
      </trkpt>
      <trkpt lat="46.52941" lon="-1.78632">
        <ele>15</ele>
        <time>2014-01-29T15:02:53Z</time>
      </trkpt>
      <trkpt lat="46.52944" lon="-1.78623">
        <ele>15</ele>
        <time>2014-01-29T15:02:59Z</time>
      </trkpt>
      <trkpt lat="46.5295" lon="-1.78608">
        <ele>15</ele>
        <time>2014-01-29T15:03:10Z</time>
      </trkpt>
      <trkpt lat="46.52955" lon="-1.78596">
        <ele>15</ele>
        <time>2014-01-29T15:03:19Z</time>
      </trkpt>
      <trkpt lat="46.52962" lon="-1.78574">
        <ele>15</ele>
        <time>2014-01-29T15:03:33Z</time>
      </trkpt>
      <trkpt lat="46.52968" lon="-1.78558">
        <ele>15</ele>
        <time>2014-01-29T15:03:44Z</time>
      </trkpt>
      <trkpt lat="46.52969" lon="-1.78555">
        <ele>15</ele>
        <time>2014-01-29T15:03:46Z</time>
      </trkpt>
      <trkpt lat="46.52977" lon="-1.78539">
        <ele>15</ele>
        <time>2014-01-29T15:03:58Z</time>
      </trkpt>
      <trkpt lat="46.52982" lon="-1.78524">
        <ele>15</ele>
        <time>2014-01-29T15:04:08Z</time>
      </trkpt>
      <trkpt lat="46.52992" lon="-1.78508">
        <ele>14</ele>
        <time>2014-01-29T15:04:20Z</time>
      </trkpt>
      <trkpt lat="46.52995" lon="-1.78505">
        <ele>14</ele>
        <time>2014-01-29T15:04:24Z</time>
      </trkpt>
      <trkpt lat="46.52998" lon="-1.78492">
        <ele>14</ele>
        <time>2014-01-29T15:04:31Z</time>
      </trkpt>
      <trkpt lat="46.52997" lon="-1.78474">
        <ele>15</ele>
        <time>2014-01-29T15:04:42Z</time>
      </trkpt>
      <trkpt lat="46.52993" lon="-1.78457">
        <ele>15</ele>
        <time>2014-01-29T15:04:53Z</time>
      </trkpt>
      <trkpt lat="46.5299" lon="-1.78441">
        <ele>16</ele>
        <time>2014-01-29T15:05:03Z</time>
      </trkpt>
      <trkpt lat="46.52984" lon="-1.78421">
        <ele>16</ele>
        <time>2014-01-29T15:05:16Z</time>
      </trkpt>
      <trkpt lat="46.52979" lon="-1.78402">
        <ele>16</ele>
        <time>2014-01-29T15:05:28Z</time>
      </trkpt>
      <trkpt lat="46.52974" lon="-1.78388">
        <ele>16</ele>
        <time>2014-01-29T15:05:38Z</time>
      </trkpt>
      <trkpt lat="46.52973" lon="-1.7838">
        <ele>16</ele>
        <time>2014-01-29T15:05:43Z</time>
      </trkpt>
      <trkpt lat="46.52972" lon="-1.78374">
        <ele>16</ele>
        <time>2014-01-29T15:05:47Z</time>
      </trkpt>
      <trkpt lat="46.52972" lon="-1.78371">
        <ele>16</ele>
        <time>2014-01-29T15:05:49Z</time>
      </trkpt>
      <trkpt lat="46.5297" lon="-1.78362">
        <ele>16</ele>
        <time>2014-01-29T15:05:55Z</time>
      </trkpt>
      <trkpt lat="46.52967" lon="-1.78353">
        <ele>16</ele>
        <time>2014-01-29T15:06:02Z</time>
      </trkpt>
      <trkpt lat="46.52967" lon="-1.78347">
        <ele>16</ele>
        <time>2014-01-29T15:06:06Z</time>
      </trkpt>
      <trkpt lat="46.5297" lon="-1.78343">
        <ele>16</ele>
        <time>2014-01-29T15:06:22Z</time>
      </trkpt>
      <trkpt lat="46.52971" lon="-1.78342">
        <ele>16</ele>
        <time>2014-01-29T15:06:38Z</time>
      </trkpt>
      <trkpt lat="46.52972" lon="-1.78342">
        <ele>16</ele>
        <time>2014-01-29T15:06:59Z</time>
      </trkpt>
      <trkpt lat="46.52972" lon="-1.78342">
        <ele>16</ele>
        <time>2014-01-29T15:07:11Z</time>
      </trkpt>
      <trkpt lat="46.52973" lon="-1.78342">
        <ele>16</ele>
        <time>2014-01-29T15:07:31Z</time>
      </trkpt>
      <trkpt lat="46.52974" lon="-1.78341">
        <ele>16</ele>
        <time>2014-01-29T15:07:48Z</time>
      </trkpt>
      <trkpt lat="46.52979" lon="-1.78343">
        <ele>15</ele>
        <time>2014-01-29T15:08:00Z</time>
      </trkpt>
      <trkpt lat="46.52984" lon="-1.78342">
        <ele>15</ele>
        <time>2014-01-29T15:08:07Z</time>
      </trkpt>
      <trkpt lat="46.52998" lon="-1.78341">
        <ele>15</ele>
        <time>2014-01-29T15:08:20Z</time>
      </trkpt>
      <trkpt lat="46.53011" lon="-1.7834">
        <ele>15</ele>
        <time>2014-01-29T15:08:34Z</time>
      </trkpt>
      <trkpt lat="46.53014" lon="-1.78339">
        <ele>15</ele>
        <time>2014-01-29T15:08:37Z</time>
      </trkpt>
      <trkpt lat="46.53023" lon="-1.78341">
        <ele>15</ele>
        <time>2014-01-29T15:08:48Z</time>
      </trkpt>
      <trkpt lat="46.5303" lon="-1.78339">
        <ele>15</ele>
        <time>2014-01-29T15:08:56Z</time>
      </trkpt>
      <trkpt lat="46.53044" lon="-1.78337">
        <ele>14</ele>
        <time>2014-01-29T15:09:10Z</time>
      </trkpt>
      <trkpt lat="46.53056" lon="-1.78335">
        <ele>14</ele>
        <time>2014-01-29T15:09:21Z</time>
      </trkpt>
      <trkpt lat="46.53059" lon="-1.78335">
        <ele>14</ele>
        <time>2014-01-29T15:09:24Z</time>
      </trkpt>
      <trkpt lat="46.53074" lon="-1.78329">
        <ele>14</ele>
        <time>2014-01-29T15:09:38Z</time>
      </trkpt>
      <trkpt lat="46.53081" lon="-1.78323">
        <ele>14</ele>
        <time>2014-01-29T15:09:44Z</time>
      </trkpt>
      <trkpt lat="46.53096" lon="-1.78317">
        <ele>13</ele>
        <time>2014-01-29T15:09:57Z</time>
      </trkpt>
      <trkpt lat="46.53107" lon="-1.78314">
        <ele>13</ele>
        <time>2014-01-29T15:10:07Z</time>
      </trkpt>
      <trkpt lat="46.53122" lon="-1.78311">
        <ele>13</ele>
        <time>2014-01-29T15:10:18Z</time>
      </trkpt>
      <trkpt lat="46.53123" lon="-1.78311">
        <ele>13</ele>
        <time>2014-01-29T15:10:19Z</time>
      </trkpt>
      <trkpt lat="46.53136" lon="-1.783">
        <ele>13</ele>
        <time>2014-01-29T15:10:32Z</time>
      </trkpt>
      <trkpt lat="46.53146" lon="-1.78283">
        <ele>12</ele>
        <time>2014-01-29T15:10:45Z</time>
      </trkpt>
      <trkpt lat="46.53152" lon="-1.78267">
        <ele>12</ele>
        <time>2014-01-29T15:10:57Z</time>
      </trkpt>
      <trkpt lat="46.53153" lon="-1.78263">
        <ele>12</ele>
        <time>2014-01-29T15:11:00Z</time>
      </trkpt>
      <trkpt lat="46.53155" lon="-1.7826">
        <ele>12</ele>
        <time>2014-01-29T15:11:02Z</time>
      </trkpt>
      <trkpt lat="46.53158" lon="-1.78247">
        <ele>12</ele>
        <time>2014-01-29T15:11:10Z</time>
      </trkpt>
      <trkpt lat="46.53161" lon="-1.78238">
        <ele>13</ele>
        <time>2014-01-29T15:11:16Z</time>
      </trkpt>
      <trkpt lat="46.53162" lon="-1.78234">
        <ele>13</ele>
        <time>2014-01-29T15:11:19Z</time>
      </trkpt>
      <trkpt lat="46.53162" lon="-1.78229">
        <ele>13</ele>
        <time>2014-01-29T15:11:22Z</time>
      </trkpt>
      <trkpt lat="46.53163" lon="-1.78219">
        <ele>13</ele>
        <time>2014-01-29T15:11:29Z</time>
      </trkpt>
      <trkpt lat="46.53171" lon="-1.78198">
        <ele>12</ele>
        <time>2014-01-29T15:11:43Z</time>
      </trkpt>
      <trkpt lat="46.53171" lon="-1.78195">
        <ele>12</ele>
        <time>2014-01-29T15:11:45Z</time>
      </trkpt>
      <trkpt lat="46.53173" lon="-1.78191">
        <ele>12</ele>
        <time>2014-01-29T15:11:48Z</time>
      </trkpt>
      <trkpt lat="46.53173" lon="-1.78188">
        <ele>12</ele>
        <time>2014-01-29T15:11:50Z</time>
      </trkpt>
      <trkpt lat="46.53176" lon="-1.78179">
        <ele>13</ele>
        <time>2014-01-29T15:11:56Z</time>
      </trkpt>
      <trkpt lat="46.5318" lon="-1.78172">
        <ele>13</ele>
        <time>2014-01-29T15:12:01Z</time>
      </trkpt>
      <trkpt lat="46.53181" lon="-1.78168">
        <ele>13</ele>
        <time>2014-01-29T15:12:04Z</time>
      </trkpt>
      <trkpt lat="46.53182" lon="-1.78165">
        <ele>13</ele>
        <time>2014-01-29T15:12:06Z</time>
      </trkpt>
      <trkpt lat="46.53185" lon="-1.78162">
        <ele>13</ele>
        <time>2014-01-29T15:12:09Z</time>
      </trkpt>
      <trkpt lat="46.5319" lon="-1.78148">
        <ele>13</ele>
        <time>2014-01-29T15:12:19Z</time>
      </trkpt>
      <trkpt lat="46.53198" lon="-1.78126">
        <ele>13</ele>
        <time>2014-01-29T15:12:33Z</time>
      </trkpt>
      <trkpt lat="46.53199" lon="-1.78125">
        <ele>13</ele>
        <time>2014-01-29T15:12:34Z</time>
      </trkpt>
      <trkpt lat="46.532" lon="-1.78124">
        <ele>13</ele>
        <time>2014-01-29T15:12:35Z</time>
      </trkpt>
      <trkpt lat="46.532" lon="-1.78122">
        <ele>13</ele>
        <time>2014-01-29T15:12:36Z</time>
      </trkpt>
      <trkpt lat="46.53201" lon="-1.78119">
        <ele>13</ele>
        <time>2014-01-29T15:12:38Z</time>
      </trkpt>
      <trkpt lat="46.53201" lon="-1.78118">
        <ele>13</ele>
        <time>2014-01-29T15:12:39Z</time>
      </trkpt>
      <trkpt lat="46.53202" lon="-1.78117">
        <ele>13</ele>
        <time>2014-01-29T15:12:40Z</time>
      </trkpt>
      <trkpt lat="46.53204" lon="-1.78111">
        <ele>13</ele>
        <time>2014-01-29T15:12:44Z</time>
      </trkpt>
      <trkpt lat="46.53205" lon="-1.7811">
        <ele>13</ele>
        <time>2014-01-29T15:12:45Z</time>
      </trkpt>
      <trkpt lat="46.53205" lon="-1.78108">
        <ele>13</ele>
        <time>2014-01-29T15:12:46Z</time>
      </trkpt>
      <trkpt lat="46.53209" lon="-1.78098">
        <ele>13</ele>
        <time>2014-01-29T15:12:54Z</time>
      </trkpt>
      <trkpt lat="46.53214" lon="-1.78079">
        <ele>13</ele>
        <time>2014-01-29T15:13:07Z</time>
      </trkpt>
      <trkpt lat="46.53217" lon="-1.78073">
        <ele>13</ele>
        <time>2014-01-29T15:13:12Z</time>
      </trkpt>
      <trkpt lat="46.53221" lon="-1.78058">
        <ele>13</ele>
        <time>2014-01-29T15:13:21Z</time>
      </trkpt>
      <trkpt lat="46.53221" lon="-1.78046">
        <ele>13</ele>
        <time>2014-01-29T15:13:29Z</time>
      </trkpt>
      <trkpt lat="46.53221" lon="-1.78041">
        <ele>13</ele>
        <time>2014-01-29T15:13:32Z</time>
      </trkpt>
      <trkpt lat="46.53222" lon="-1.78036">
        <ele>13</ele>
        <time>2014-01-29T15:13:35Z</time>
      </trkpt>
      <trkpt lat="46.53222" lon="-1.78032">
        <ele>13</ele>
        <time>2014-01-29T15:13:38Z</time>
      </trkpt>
      <trkpt lat="46.53224" lon="-1.78018">
        <ele>13</ele>
        <time>2014-01-29T15:13:47Z</time>
      </trkpt>
      <trkpt lat="46.53226" lon="-1.78012">
        <ele>13</ele>
        <time>2014-01-29T15:13:51Z</time>
      </trkpt>
      <trkpt lat="46.53229" lon="-1.77991">
        <ele>14</ele>
        <time>2014-01-29T15:14:04Z</time>
      </trkpt>
      <trkpt lat="46.53231" lon="-1.77983">
        <ele>14</ele>
        <time>2014-01-29T15:14:09Z</time>
      </trkpt>
      <trkpt lat="46.53235" lon="-1.77966">
        <ele>14</ele>
        <time>2014-01-29T15:14:21Z</time>
      </trkpt>
      <trkpt lat="46.53241" lon="-1.77946">
        <ele>13</ele>
        <time>2014-01-29T15:14:34Z</time>
      </trkpt>
      <trkpt lat="46.53243" lon="-1.77943">
        <ele>13</ele>
        <time>2014-01-29T15:14:37Z</time>
      </trkpt>
      <trkpt lat="46.53253" lon="-1.77934">
        <ele>13</ele>
        <time>2014-01-29T15:14:49Z</time>
      </trkpt>
      <trkpt lat="46.53258" lon="-1.77934">
        <ele>13</ele>
        <time>2014-01-29T15:15:01Z</time>
      </trkpt>
      <trkpt lat="46.53258" lon="-1.77929">
        <ele>13</ele>
        <time>2014-01-29T15:15:19Z</time>
      </trkpt>
      <trkpt lat="46.53257" lon="-1.77923">
        <ele>13</ele>
        <time>2014-01-29T15:15:24Z</time>
      </trkpt>
      <trkpt lat="46.53256" lon="-1.77904">
        <ele>12</ele>
        <time>2014-01-29T15:15:36Z</time>
      </trkpt>
      <trkpt lat="46.53255" lon="-1.7789">
        <ele>12</ele>
        <time>2014-01-29T15:15:45Z</time>
      </trkpt>
      <trkpt lat="46.53253" lon="-1.77886">
        <ele>12</ele>
        <time>2014-01-29T15:15:48Z</time>
      </trkpt>
      <trkpt lat="46.53253" lon="-1.77882">
        <ele>12</ele>
        <time>2014-01-29T15:15:51Z</time>
      </trkpt>
      <trkpt lat="46.53252" lon="-1.7788">
        <ele>12</ele>
        <time>2014-01-29T15:15:53Z</time>
      </trkpt>
      <trkpt lat="46.53249" lon="-1.7786">
        <ele>13</ele>
        <time>2014-01-29T15:16:06Z</time>
      </trkpt>
      <trkpt lat="46.53249" lon="-1.77842">
        <ele>12</ele>
        <time>2014-01-29T15:16:18Z</time>
      </trkpt>
      <trkpt lat="46.53255" lon="-1.77835">
        <ele>12</ele>
        <time>2014-01-29T15:16:26Z</time>
      </trkpt>
      <trkpt lat="46.53256" lon="-1.77832">
        <ele>12</ele>
        <time>2014-01-29T15:16:28Z</time>
      </trkpt>
      <trkpt lat="46.53257" lon="-1.77831">
        <ele>12</ele>
        <time>2014-01-29T15:16:30Z</time>
      </trkpt>
      <trkpt lat="46.53266" lon="-1.77815">
        <ele>11</ele>
        <time>2014-01-29T15:16:43Z</time>
      </trkpt>
      <trkpt lat="46.53267" lon="-1.77814">
        <ele>11</ele>
        <time>2014-01-29T15:16:44Z</time>
      </trkpt>
      <trkpt lat="46.53267" lon="-1.7781">
        <ele>11</ele>
        <time>2014-01-29T15:16:46Z</time>
      </trkpt>
      <trkpt lat="46.53269" lon="-1.77805">
        <ele>11</ele>
        <time>2014-01-29T15:16:50Z</time>
      </trkpt>
      <trkpt lat="46.5327" lon="-1.77799">
        <ele>11</ele>
        <time>2014-01-29T15:16:54Z</time>
      </trkpt>
      <trkpt lat="46.53272" lon="-1.77796">
        <ele>11</ele>
        <time>2014-01-29T15:16:57Z</time>
      </trkpt>
      <trkpt lat="46.53274" lon="-1.77795">
        <ele>11</ele>
        <time>2014-01-29T15:16:59Z</time>
      </trkpt>
      <trkpt lat="46.53283" lon="-1.77784">
        <ele>11</ele>
        <time>2014-01-29T15:17:10Z</time>
      </trkpt>
      <trkpt lat="46.5329" lon="-1.77772">
        <ele>11</ele>
        <time>2014-01-29T15:17:20Z</time>
      </trkpt>
      <trkpt lat="46.53293" lon="-1.77768">
        <ele>11</ele>
        <time>2014-01-29T15:17:23Z</time>
      </trkpt>
      <trkpt lat="46.53303" lon="-1.77756">
        <ele>11</ele>
        <time>2014-01-29T15:17:35Z</time>
      </trkpt>
      <trkpt lat="46.53305" lon="-1.77753">
        <ele>10</ele>
        <time>2014-01-29T15:17:37Z</time>
      </trkpt>
      <trkpt lat="46.53309" lon="-1.77747">
        <ele>10</ele>
        <time>2014-01-29T15:17:43Z</time>
      </trkpt>
      <trkpt lat="46.53303" lon="-1.77733">
        <ele>11</ele>
        <time>2014-01-29T15:17:55Z</time>
      </trkpt>
      <trkpt lat="46.53298" lon="-1.77722">
        <ele>11</ele>
        <time>2014-01-29T15:18:03Z</time>
      </trkpt>
      <trkpt lat="46.53291" lon="-1.77713">
        <ele>11</ele>
        <time>2014-01-29T15:18:15Z</time>
      </trkpt>
      <trkpt lat="46.53291" lon="-1.77714">
        <ele>11</ele>
        <time>2014-01-29T15:18:33Z</time>
      </trkpt>
      <trkpt lat="46.53292" lon="-1.77713">
        <ele>11</ele>
        <time>2014-01-29T15:18:37Z</time>
      </trkpt>
      <trkpt lat="46.53299" lon="-1.77705">
        <ele>11</ele>
        <time>2014-01-29T15:18:46Z</time>
      </trkpt>
      <trkpt lat="46.53307" lon="-1.77698">
        <ele>11</ele>
        <time>2014-01-29T15:18:55Z</time>
      </trkpt>
      <trkpt lat="46.53311" lon="-1.77693">
        <ele>11</ele>
        <time>2014-01-29T15:19:00Z</time>
      </trkpt>
      <trkpt lat="46.53324" lon="-1.77679">
        <ele>11</ele>
        <time>2014-01-29T15:19:15Z</time>
      </trkpt>
      <trkpt lat="46.53337" lon="-1.77678">
        <ele>11</ele>
        <time>2014-01-29T15:19:27Z</time>
      </trkpt>
      <trkpt lat="46.5335" lon="-1.77679">
        <ele>11</ele>
        <time>2014-01-29T15:19:39Z</time>
      </trkpt>
      <trkpt lat="46.53363" lon="-1.77674">
        <ele>12</ele>
        <time>2014-01-29T15:19:52Z</time>
      </trkpt>
      <trkpt lat="46.53373" lon="-1.77669">
        <ele>12</ele>
        <time>2014-01-29T15:20:02Z</time>
      </trkpt>
      <trkpt lat="46.53386" lon="-1.77665">
        <ele>14</ele>
        <time>2014-01-29T15:20:15Z</time>
      </trkpt>
      <trkpt lat="46.534" lon="-1.77661">
        <ele>15</ele>
        <time>2014-01-29T15:20:29Z</time>
      </trkpt>
      <trkpt lat="46.53406" lon="-1.77659">
        <ele>15</ele>
        <time>2014-01-29T15:20:35Z</time>
      </trkpt>
      <trkpt lat="46.53413" lon="-1.77658">
        <ele>15</ele>
        <time>2014-01-29T15:20:47Z</time>
      </trkpt>
      <trkpt lat="46.53414" lon="-1.77658">
        <ele>15</ele>
        <time>2014-01-29T15:20:48Z</time>
      </trkpt>
      <trkpt lat="46.53431" lon="-1.77657">
        <ele>16</ele>
        <time>2014-01-29T15:21:03Z</time>
      </trkpt>
      <trkpt lat="46.53443" lon="-1.77654">
        <ele>16</ele>
        <time>2014-01-29T15:21:16Z</time>
      </trkpt>
      <trkpt lat="46.53459" lon="-1.77653">
        <ele>16</ele>
        <time>2014-01-29T15:21:31Z</time>
      </trkpt>
      <trkpt lat="46.53466" lon="-1.77651">
        <ele>16</ele>
        <time>2014-01-29T15:21:37Z</time>
      </trkpt>
      <trkpt lat="46.53471" lon="-1.77645">
        <ele>17</ele>
        <time>2014-01-29T15:21:44Z</time>
      </trkpt>
      <trkpt lat="46.53474" lon="-1.77644">
        <ele>17</ele>
        <time>2014-01-29T15:21:46Z</time>
      </trkpt>
      <trkpt lat="46.53481" lon="-1.7764">
        <ele>17</ele>
        <time>2014-01-29T15:21:53Z</time>
      </trkpt>
      <trkpt lat="46.53483" lon="-1.77638">
        <ele>17</ele>
        <time>2014-01-29T15:21:55Z</time>
      </trkpt>
      <trkpt lat="46.5349" lon="-1.77631">
        <ele>17</ele>
        <time>2014-01-29T15:22:03Z</time>
      </trkpt>
      <trkpt lat="46.53492" lon="-1.77628">
        <ele>17</ele>
        <time>2014-01-29T15:22:06Z</time>
      </trkpt>
      <trkpt lat="46.53494" lon="-1.77626">
        <ele>17</ele>
        <time>2014-01-29T15:22:08Z</time>
      </trkpt>
      <trkpt lat="46.53503" lon="-1.77614">
        <ele>18</ele>
        <time>2014-01-29T15:22:19Z</time>
      </trkpt>
      <trkpt lat="46.5351" lon="-1.77604">
        <ele>19</ele>
        <time>2014-01-29T15:22:28Z</time>
      </trkpt>
      <trkpt lat="46.53518" lon="-1.77595">
        <ele>19</ele>
        <time>2014-01-29T15:22:37Z</time>
      </trkpt>
      <trkpt lat="46.5352" lon="-1.77589">
        <ele>19</ele>
        <time>2014-01-29T15:22:42Z</time>
      </trkpt>
      <trkpt lat="46.53529" lon="-1.77576">
        <ele>21</ele>
        <time>2014-01-29T15:22:54Z</time>
      </trkpt>
      <trkpt lat="46.53541" lon="-1.77564">
        <ele>21</ele>
        <time>2014-01-29T15:23:08Z</time>
      </trkpt>
      <trkpt lat="46.53551" lon="-1.7756">
        <ele>21</ele>
        <time>2014-01-29T15:23:19Z</time>
      </trkpt>
      <trkpt lat="46.53555" lon="-1.77558">
        <ele>21</ele>
        <time>2014-01-29T15:23:33Z</time>
      </trkpt>
      <trkpt lat="46.53555" lon="-1.77557">
        <ele>21</ele>
        <time>2014-01-29T15:23:52Z</time>
      </trkpt>
      <trkpt lat="46.53557" lon="-1.77558">
        <ele>21</ele>
        <time>2014-01-29T15:24:06Z</time>
      </trkpt>
      <trkpt lat="46.53557" lon="-1.77557">
        <ele>21</ele>
        <time>2014-01-29T15:24:28Z</time>
      </trkpt>
      <trkpt lat="46.53559" lon="-1.77558">
        <ele>21</ele>
        <time>2014-01-29T15:24:53Z</time>
      </trkpt>
      <trkpt lat="46.53559" lon="-1.77559">
        <ele>21</ele>
        <time>2014-01-29T15:25:07Z</time>
      </trkpt>
      <trkpt lat="46.53557" lon="-1.7756">
        <ele>21</ele>
        <time>2014-01-29T15:25:19Z</time>
      </trkpt>
      <trkpt lat="46.53556" lon="-1.77561">
        <ele>21</ele>
        <time>2014-01-29T15:25:41Z</time>
      </trkpt>
      <trkpt lat="46.53557" lon="-1.77561">
        <ele>21</ele>
        <time>2014-01-29T15:26:00Z</time>
      </trkpt>
      <trkpt lat="46.53556" lon="-1.7756">
        <ele>21</ele>
        <time>2014-01-29T15:26:29Z</time>
      </trkpt>
      <trkpt lat="46.53554" lon="-1.77562">
        <ele>21</ele>
        <time>2014-01-29T15:26:46Z</time>
      </trkpt>
      <trkpt lat="46.53551" lon="-1.77562">
        <ele>21</ele>
        <time>2014-01-29T15:26:51Z</time>
      </trkpt>
      <trkpt lat="46.53548" lon="-1.77561">
        <ele>21</ele>
        <time>2014-01-29T15:26:54Z</time>
      </trkpt>
      <trkpt lat="46.53549" lon="-1.77548">
        <ele>21</ele>
        <time>2014-01-29T15:27:06Z</time>
      </trkpt>
      <trkpt lat="46.53549" lon="-1.77546">
        <ele>21</ele>
        <time>2014-01-29T15:27:08Z</time>
      </trkpt>
      <trkpt lat="46.53554" lon="-1.77532">
        <ele>22</ele>
        <time>2014-01-29T15:27:20Z</time>
      </trkpt>
      <trkpt lat="46.53564" lon="-1.77528">
        <ele>22</ele>
        <time>2014-01-29T15:27:32Z</time>
      </trkpt>
      <trkpt lat="46.53569" lon="-1.77527">
        <ele>22</ele>
        <time>2014-01-29T15:27:38Z</time>
      </trkpt>
      <trkpt lat="46.5357" lon="-1.77527">
        <ele>22</ele>
        <time>2014-01-29T15:27:39Z</time>
      </trkpt>
      <trkpt lat="46.53571" lon="-1.77527">
        <ele>22</ele>
        <time>2014-01-29T15:27:40Z</time>
      </trkpt>
      <trkpt lat="46.53576" lon="-1.77523">
        <ele>22</ele>
        <time>2014-01-29T15:27:54Z</time>
      </trkpt>
      <trkpt lat="46.53577" lon="-1.77509">
        <ele>22</ele>
        <time>2014-01-29T15:28:05Z</time>
      </trkpt>
      <trkpt lat="46.53579" lon="-1.77499">
        <ele>23</ele>
        <time>2014-01-29T15:28:11Z</time>
      </trkpt>
      <trkpt lat="46.5358" lon="-1.77487">
        <ele>23</ele>
        <time>2014-01-29T15:28:21Z</time>
      </trkpt>
      <trkpt lat="46.53581" lon="-1.77482">
        <ele>23</ele>
        <time>2014-01-29T15:28:24Z</time>
      </trkpt>
      <trkpt lat="46.53583" lon="-1.77468">
        <ele>24</ele>
        <time>2014-01-29T15:28:36Z</time>
      </trkpt>
      <trkpt lat="46.53584" lon="-1.77467">
        <ele>25</ele>
        <time>2014-01-29T15:28:37Z</time>
      </trkpt>
      <trkpt lat="46.5359" lon="-1.77461">
        <ele>25</ele>
        <time>2014-01-29T15:28:46Z</time>
      </trkpt>
      <trkpt lat="46.53598" lon="-1.77459">
        <ele>25</ele>
        <time>2014-01-29T15:28:55Z</time>
      </trkpt>
      <trkpt lat="46.53614" lon="-1.77454">
        <ele>25</ele>
        <time>2014-01-29T15:29:07Z</time>
      </trkpt>
      <trkpt lat="46.53616" lon="-1.77453">
        <ele>25</ele>
        <time>2014-01-29T15:29:09Z</time>
      </trkpt>
      <trkpt lat="46.5362" lon="-1.77452">
        <ele>25</ele>
        <time>2014-01-29T15:29:12Z</time>
      </trkpt>
      <trkpt lat="46.53636" lon="-1.77443">
        <ele>26</ele>
        <time>2014-01-29T15:29:26Z</time>
      </trkpt>
      <trkpt lat="46.53645" lon="-1.77437">
        <ele>26</ele>
        <time>2014-01-29T15:29:38Z</time>
      </trkpt>
      <trkpt lat="46.53658" lon="-1.77438">
        <ele>26</ele>
        <time>2014-01-29T15:29:49Z</time>
      </trkpt>
      <trkpt lat="46.53659" lon="-1.77441">
        <ele>26</ele>
        <time>2014-01-29T15:29:51Z</time>
      </trkpt>
      <trkpt lat="46.53658" lon="-1.77456">
        <ele>26</ele>
        <time>2014-01-29T15:30:02Z</time>
      </trkpt>
      <trkpt lat="46.53658" lon="-1.77458">
        <ele>26</ele>
        <time>2014-01-29T15:30:04Z</time>
      </trkpt>
      <trkpt lat="46.53659" lon="-1.7748">
        <ele>25</ele>
        <time>2014-01-29T15:30:16Z</time>
      </trkpt>
      <trkpt lat="46.53658" lon="-1.77497">
        <ele>25</ele>
        <time>2014-01-29T15:30:27Z</time>
      </trkpt>
      <trkpt lat="46.53657" lon="-1.77498">
        <ele>25</ele>
        <time>2014-01-29T15:30:28Z</time>
      </trkpt>
      <trkpt lat="46.53655" lon="-1.77502">
        <ele>24</ele>
        <time>2014-01-29T15:30:32Z</time>
      </trkpt>
      <trkpt lat="46.53654" lon="-1.77508">
        <ele>24</ele>
        <time>2014-01-29T15:30:35Z</time>
      </trkpt>
      <trkpt lat="46.53653" lon="-1.77519">
        <ele>24</ele>
        <time>2014-01-29T15:30:41Z</time>
      </trkpt>
      <trkpt lat="46.53651" lon="-1.77523">
        <ele>24</ele>
        <time>2014-01-29T15:30:44Z</time>
      </trkpt>
      <trkpt lat="46.53653" lon="-1.77541">
        <ele>23</ele>
        <time>2014-01-29T15:30:53Z</time>
      </trkpt>
      <trkpt lat="46.53658" lon="-1.77558">
        <ele>23</ele>
        <time>2014-01-29T15:31:04Z</time>
      </trkpt>
      <trkpt lat="46.5367" lon="-1.77573">
        <ele>23</ele>
        <time>2014-01-29T15:31:16Z</time>
      </trkpt>
      <trkpt lat="46.53679" lon="-1.77586">
        <ele>23</ele>
        <time>2014-01-29T15:31:27Z</time>
      </trkpt>
      <trkpt lat="46.53689" lon="-1.77609">
        <ele>22</ele>
        <time>2014-01-29T15:31:41Z</time>
      </trkpt>
      <trkpt lat="46.53698" lon="-1.77625">
        <ele>22</ele>
        <time>2014-01-29T15:31:53Z</time>
      </trkpt>
      <trkpt lat="46.53707" lon="-1.77634">
        <ele>22</ele>
        <time>2014-01-29T15:32:02Z</time>
      </trkpt>
      <trkpt lat="46.5372" lon="-1.77644">
        <ele>22</ele>
        <time>2014-01-29T15:32:15Z</time>
      </trkpt>
      <trkpt lat="46.5372" lon="-1.77645">
        <ele>22</ele>
        <time>2014-01-29T15:32:16Z</time>
      </trkpt>
      <trkpt lat="46.53733" lon="-1.77644">
        <ele>22</ele>
        <time>2014-01-29T15:32:27Z</time>
      </trkpt>
      <trkpt lat="46.53742" lon="-1.77641">
        <ele>22</ele>
        <time>2014-01-29T15:32:36Z</time>
      </trkpt>
      <trkpt lat="46.53748" lon="-1.77654">
        <ele>22</ele>
        <time>2014-01-29T15:32:46Z</time>
      </trkpt>
      <trkpt lat="46.53751" lon="-1.77653">
        <ele>22</ele>
        <time>2014-01-29T15:32:49Z</time>
      </trkpt>
      <trkpt lat="46.53752" lon="-1.77651">
        <ele>22</ele>
        <time>2014-01-29T15:32:51Z</time>
      </trkpt>
      <trkpt lat="46.53753" lon="-1.77646">
        <ele>22</ele>
        <time>2014-01-29T15:32:55Z</time>
      </trkpt>
      <trkpt lat="46.5376" lon="-1.77642">
        <ele>22</ele>
        <time>2014-01-29T15:33:07Z</time>
      </trkpt>
      <trkpt lat="46.53762" lon="-1.77643">
        <ele>22</ele>
        <time>2014-01-29T15:33:10Z</time>
      </trkpt>
      <trkpt lat="46.53765" lon="-1.77643">
        <ele>22</ele>
        <time>2014-01-29T15:33:13Z</time>
      </trkpt>
      <trkpt lat="46.53775" lon="-1.77639">
        <ele>22</ele>
        <time>2014-01-29T15:33:21Z</time>
      </trkpt>
      <trkpt lat="46.53785" lon="-1.77639">
        <ele>22</ele>
        <time>2014-01-29T15:33:31Z</time>
      </trkpt>
      <trkpt lat="46.538" lon="-1.77651">
        <ele>22</ele>
        <time>2014-01-29T15:33:44Z</time>
      </trkpt>
      <trkpt lat="46.53808" lon="-1.77656">
        <ele>22</ele>
        <time>2014-01-29T15:33:52Z</time>
      </trkpt>
      <trkpt lat="46.53816" lon="-1.77672">
        <ele>21</ele>
        <time>2014-01-29T15:34:03Z</time>
      </trkpt>
      <trkpt lat="46.53825" lon="-1.77693">
        <ele>21</ele>
        <time>2014-01-29T15:34:17Z</time>
      </trkpt>
      <trkpt lat="46.53833" lon="-1.77707">
        <ele>21</ele>
        <time>2014-01-29T15:34:27Z</time>
      </trkpt>
      <trkpt lat="46.5384" lon="-1.7772">
        <ele>19</ele>
        <time>2014-01-29T15:34:39Z</time>
      </trkpt>
      <trkpt lat="46.53846" lon="-1.7773">
        <ele>19</ele>
        <time>2014-01-29T15:34:46Z</time>
      </trkpt>
      <trkpt lat="46.53848" lon="-1.77729">
        <ele>19</ele>
        <time>2014-01-29T15:34:48Z</time>
      </trkpt>
      <trkpt lat="46.53855" lon="-1.77734">
        <ele>19</ele>
        <time>2014-01-29T15:35:00Z</time>
      </trkpt>
      <trkpt lat="46.53859" lon="-1.7774">
        <ele>19</ele>
        <time>2014-01-29T15:35:13Z</time>
      </trkpt>
      <trkpt lat="46.53859" lon="-1.7774">
        <ele>19</ele>
        <time>2014-01-29T15:35:17Z</time>
      </trkpt>
      <trkpt lat="46.53863" lon="-1.77743">
        <ele>18</ele>
        <time>2014-01-29T15:35:23Z</time>
      </trkpt>
      <trkpt lat="46.53875" lon="-1.77757">
        <ele>17</ele>
        <time>2014-01-29T15:35:36Z</time>
      </trkpt>
      <trkpt lat="46.53876" lon="-1.77758">
        <ele>17</ele>
        <time>2014-01-29T15:35:37Z</time>
      </trkpt>
      <trkpt lat="46.53885" lon="-1.77768">
        <ele>17</ele>
        <time>2014-01-29T15:35:49Z</time>
      </trkpt>
      <trkpt lat="46.53893" lon="-1.77776">
        <ele>17</ele>
        <time>2014-01-29T15:36:02Z</time>
      </trkpt>
      <trkpt lat="46.53895" lon="-1.77773">
        <ele>17</ele>
        <time>2014-01-29T15:36:12Z</time>
      </trkpt>
      <trkpt lat="46.53903" lon="-1.77764">
        <ele>16</ele>
        <time>2014-01-29T15:36:21Z</time>
      </trkpt>
      <trkpt lat="46.5391" lon="-1.77748">
        <ele>16</ele>
        <time>2014-01-29T15:36:33Z</time>
      </trkpt>
      <trkpt lat="46.53915" lon="-1.77728">
        <ele>17</ele>
        <time>2014-01-29T15:36:46Z</time>
      </trkpt>
      <trkpt lat="46.53918" lon="-1.77716">
        <ele>14</ele>
        <time>2014-01-29T15:36:53Z</time>
      </trkpt>
      <trkpt lat="46.53925" lon="-1.77705">
        <ele>14</ele>
        <time>2014-01-29T15:37:06Z</time>
      </trkpt>
      <trkpt lat="46.53929" lon="-1.77706">
        <ele>14</ele>
        <time>2014-01-29T15:37:26Z</time>
      </trkpt>
      <trkpt lat="46.53929" lon="-1.77706">
        <ele>14</ele>
        <time>2014-01-29T15:37:51Z</time>
      </trkpt>
      <trkpt lat="46.53931" lon="-1.77704">
        <ele>14</ele>
        <time>2014-01-29T15:38:02Z</time>
      </trkpt>
      <trkpt lat="46.53934" lon="-1.77696">
        <ele>14</ele>
        <time>2014-01-29T15:38:13Z</time>
      </trkpt>
      <trkpt lat="46.53935" lon="-1.77694">
        <ele>14</ele>
        <time>2014-01-29T15:38:15Z</time>
      </trkpt>
      <trkpt lat="46.53944" lon="-1.77681">
        <ele>14</ele>
        <time>2014-01-29T15:38:27Z</time>
      </trkpt>
      <trkpt lat="46.53955" lon="-1.77672">
        <ele>14</ele>
        <time>2014-01-29T15:38:39Z</time>
      </trkpt>
      <trkpt lat="46.53956" lon="-1.77672">
        <ele>13</ele>
        <time>2014-01-29T15:38:40Z</time>
      </trkpt>
      <trkpt lat="46.5397" lon="-1.77663">
        <ele>13</ele>
        <time>2014-01-29T15:38:53Z</time>
      </trkpt>
      <trkpt lat="46.5397" lon="-1.77662">
        <ele>13</ele>
        <time>2014-01-29T15:38:54Z</time>
      </trkpt>
      <trkpt lat="46.53986" lon="-1.77654">
        <ele>12</ele>
        <time>2014-01-29T15:39:10Z</time>
      </trkpt>
      <trkpt lat="46.54003" lon="-1.77645">
        <ele>9</ele>
        <time>2014-01-29T15:39:25Z</time>
      </trkpt>
      <trkpt lat="46.54016" lon="-1.77638">
        <ele>8</ele>
        <time>2014-01-29T15:39:38Z</time>
      </trkpt>
      <trkpt lat="46.54029" lon="-1.77629">
        <ele>8</ele>
        <time>2014-01-29T15:39:52Z</time>
      </trkpt>
      <trkpt lat="46.54042" lon="-1.77619">
        <ele>7</ele>
        <time>2014-01-29T15:40:04Z</time>
      </trkpt>
      <trkpt lat="46.54045" lon="-1.77617">
        <ele>7</ele>
        <time>2014-01-29T15:40:07Z</time>
      </trkpt>
      <trkpt lat="46.54055" lon="-1.77611">
        <ele>7</ele>
        <time>2014-01-29T15:40:18Z</time>
      </trkpt>
      <trkpt lat="46.5407" lon="-1.77602">
        <ele>6</ele>
        <time>2014-01-29T15:40:33Z</time>
      </trkpt>
      <trkpt lat="46.54083" lon="-1.77592">
        <ele>6</ele>
        <time>2014-01-29T15:40:47Z</time>
      </trkpt>
      <trkpt lat="46.54095" lon="-1.77583">
        <ele>5</ele>
        <time>2014-01-29T15:40:59Z</time>
      </trkpt>
      <trkpt lat="46.54107" lon="-1.77574">
        <ele>4</ele>
        <time>2014-01-29T15:41:11Z</time>
      </trkpt>
      <trkpt lat="46.5412" lon="-1.77563">
        <ele>4</ele>
        <time>2014-01-29T15:41:24Z</time>
      </trkpt>
      <trkpt lat="46.54134" lon="-1.77554">
        <ele>4</ele>
        <time>2014-01-29T15:41:36Z</time>
      </trkpt>
      <trkpt lat="46.54136" lon="-1.77554">
        <ele>4</ele>
        <time>2014-01-29T15:41:38Z</time>
      </trkpt>
      <trkpt lat="46.54143" lon="-1.7755">
        <ele>4</ele>
        <time>2014-01-29T15:41:44Z</time>
      </trkpt>
      <trkpt lat="46.54143" lon="-1.77549">
        <ele>4</ele>
        <time>2014-01-29T15:41:45Z</time>
      </trkpt>
      <trkpt lat="46.54154" lon="-1.77539">
        <ele>4</ele>
        <time>2014-01-29T15:41:58Z</time>
      </trkpt>
      <trkpt lat="46.54165" lon="-1.7753">
        <ele>4</ele>
        <time>2014-01-29T15:42:10Z</time>
      </trkpt>
      <trkpt lat="46.5417" lon="-1.77525">
        <ele>3</ele>
        <time>2014-01-29T15:42:15Z</time>
      </trkpt>
      <trkpt lat="46.54182" lon="-1.77511">
        <ele>3</ele>
        <time>2014-01-29T15:42:30Z</time>
      </trkpt>
      <trkpt lat="46.54183" lon="-1.7751">
        <ele>3</ele>
        <time>2014-01-29T15:42:31Z</time>
      </trkpt>
      <trkpt lat="46.54198" lon="-1.77496">
        <ele>3</ele>
        <time>2014-01-29T15:42:46Z</time>
      </trkpt>
      <trkpt lat="46.54212" lon="-1.77483">
        <ele>3</ele>
        <time>2014-01-29T15:43:01Z</time>
      </trkpt>
      <trkpt lat="46.54219" lon="-1.77476">
        <ele>3</ele>
        <time>2014-01-29T15:43:09Z</time>
      </trkpt>
      <trkpt lat="46.54229" lon="-1.77462">
        <ele>3</ele>
        <time>2014-01-29T15:43:23Z</time>
      </trkpt>
      <trkpt lat="46.54232" lon="-1.77454">
        <ele>4</ele>
        <time>2014-01-29T15:43:29Z</time>
      </trkpt>
      <trkpt lat="46.54232" lon="-1.7744">
        <ele>4</ele>
        <time>2014-01-29T15:43:39Z</time>
      </trkpt>
      <trkpt lat="46.54227" lon="-1.77424">
        <ele>4</ele>
        <time>2014-01-29T15:43:52Z</time>
      </trkpt>
      <trkpt lat="46.54226" lon="-1.77416">
        <ele>4</ele>
        <time>2014-01-29T15:43:58Z</time>
      </trkpt>
      <trkpt lat="46.54223" lon="-1.77409">
        <ele>4</ele>
        <time>2014-01-29T15:44:02Z</time>
      </trkpt>
      <trkpt lat="46.54223" lon="-1.77406">
        <ele>4</ele>
        <time>2014-01-29T15:44:04Z</time>
      </trkpt>
      <trkpt lat="46.54222" lon="-1.77392">
        <ele>4</ele>
        <time>2014-01-29T15:44:15Z</time>
      </trkpt>
      <trkpt lat="46.54222" lon="-1.77389">
        <ele>4</ele>
        <time>2014-01-29T15:44:27Z</time>
      </trkpt>
      <trkpt lat="46.54223" lon="-1.77389">
        <ele>4</ele>
        <time>2014-01-29T15:44:44Z</time>
      </trkpt>
      <trkpt lat="46.54222" lon="-1.7739">
        <ele>4</ele>
        <time>2014-01-29T15:44:58Z</time>
      </trkpt>
      <trkpt lat="46.54222" lon="-1.7739">
        <ele>4</ele>
        <time>2014-01-29T15:44:59Z</time>
      </trkpt>
      <trkpt lat="46.54222" lon="-1.7739">
        <ele>4</ele>
        <time>2014-01-29T15:45:00Z</time>
      </trkpt>
      <trkpt lat="46.54222" lon="-1.7739">
        <ele>4</ele>
        <time>2014-01-29T15:45:01Z</time>
      </trkpt>
      <trkpt lat="46.54222" lon="-1.7739">
        <ele>4</ele>
        <time>2014-01-29T15:45:02Z</time>
      </trkpt>
      <trkpt lat="46.54222" lon="-1.7739">
        <ele>4</ele>
        <time>2014-01-29T15:45:03Z</time>
      </trkpt>
      <trkpt lat="46.54222" lon="-1.7739">
        <ele>4</ele>
        <time>2014-01-29T15:45:04Z</time>
      </trkpt>
      <trkpt lat="46.54222" lon="-1.7739">
        <ele>4</ele>
        <time>2014-01-29T15:45:05Z</time>
      </trkpt>
      <trkpt lat="46.54222" lon="-1.7739">
        <ele>4</ele>
        <time>2014-01-29T15:45:31Z</time>
      </trkpt>
      <trkpt lat="46.54222" lon="-1.7739">
        <ele>4</ele>
        <time>2014-01-29T15:45:32Z</time>
      </trkpt>
    </trkseg>
  </trk>
</gpx>